Observation data for Wall on 08/20/2019      Previous  Date  Next       Current Mesonet Observations  Soil Data  Daily Summary Page  Observations in Plain Language
KWA1 200500Z 13007KT 29/17 A3003 RMK A01 T02870166  RH  048%=      5-min Rain = 0
KWA1 200501Z 13006KT 29/17 A3003 RMK A01 T02860165  RH  048%=      5-min Rain = 0
KWA1 200502Z 14006KT 29/17 A3004 RMK A01 T02860165  RH  048%=      5-min Rain = 0
KWA1 200503Z 14007KT 29/17 A3004 RMK A01 T02860165  RH  048%=      5-min Rain = 0
KWA1 200504Z 14006KT 29/17 A3004 RMK A01 T02860165  RH  048%=      5-min Rain = 0
KWA1 200505Z 14006KT 29/17 A3004 RMK A01 T02860166  RH  048%=      5-min Rain = 0
KWA1 200506Z 14006KT 29/17 A3004 RMK A01 T02860166  RH  048%=      5-min Rain = 0
KWA1 200507Z 14006KT 29/17 A3004 RMK A01 T02860166  RH  048%=      5-min Rain = 0
KWA1 200508Z 15006KT 29/17 A3004 RMK A01 T02860167  RH  049%=      5-min Rain = 0
KWA1 200509Z 15005KT 29/17 A3004 RMK A01 T02850167  RH  049%=      5-min Rain = 0
KWA1 200510Z 14005KT 29/17 A3004 RMK A01 T02850167  RH  049%=      5-min Rain = 0
KWA1 200511Z 13006KT 29/17 A3004 RMK A01 T02850167  RH  049%=      5-min Rain = 0
KWA1 200512Z 13006KT 28/17 A3004 RMK A01 T02840166  RH  049%=      5-min Rain = 0
KWA1 200513Z 13006KT 28/17 A3004 RMK A01 T02840166  RH  049%=      5-min Rain = 0
KWA1 200514Z 14006KT 28/17 A3004 RMK A01 T02840166  RH  049%=      5-min Rain = 0
KWA1 200515Z 14006KT 28/17 A3004 RMK A01 T02840166  RH  049%=      5-min Rain = 0
KWA1 200516Z 14006KT 28/17 A3004 RMK A01 T02840166  RH  049%=      5-min Rain = 0
KWA1 200517Z 13006KT 28/17 A3004 RMK A01 T02840166  RH  049%=      5-min Rain = 0
KWA1 200518Z 14006KT 28/17 A3004 RMK A01 T02840166  RH  049%=      5-min Rain = 0
KWA1 200519Z 15005KT 28/17 A3004 RMK A01 T02830166  RH  049%=      5-min Rain = 0
KWA1 200520Z 15005KT 28/17 A3004 RMK A01 T02830167  RH  049%=      5-min Rain = 0
KWA1 200521Z 15006KT 28/17 A3004 RMK A01 T02820167  RH  050%=      5-min Rain = 0
KWA1 200522Z 15006KT 28/17 A3004 RMK A01 T02810167  RH  050%=      5-min Rain = 0
KWA1 200523Z 15006KT 28/17 A3004 RMK A01 T02810167  RH  050%=      5-min Rain = 0
KWA1 200524Z 15006KT 28/17 A3004 RMK A01 T02790168  RH  051%=      5-min Rain = 0
KWA1 200525Z 15006KT 28/17 A3004 RMK A01 T02780167  RH  051%=      5-min Rain = 0
KWA1 200526Z 14006KT 28/17 A3004 RMK A01 T02780167  RH  051%=      5-min Rain = 0
KWA1 200527Z 14005KT 28/17 A3004 RMK A01 T02770167  RH  051%=      5-min Rain = 0
KWA1 200528Z 14006KT 28/17 A3004 RMK A01 T02780168  RH  051%=      5-min Rain = 0
KWA1 200529Z 15005KT 28/17 A3004 RMK A01 T02770168  RH  051%=      5-min Rain = 0
KWA1 200530Z 15005KT 28/17 A3004 RMK A01 T02770168  RH  052%=      5-min Rain = 0
KWA1 200531Z 15005KT 28/17 A3004 RMK A01 T02760168  RH  052%=      5-min Rain = 0
KWA1 200532Z 15005KT 28/17 A3004 RMK A01 T02760168  RH  052%=      5-min Rain = 0
KWA1 200533Z 15005KT 28/17 A3004 RMK A01 T02750168  RH  052%=      5-min Rain = 0
KWA1 200534Z 15005KT 27/17 A3004 RMK A01 T02740168  RH  053%=      5-min Rain = 0
KWA1 200535Z 15005KT 27/17 A3004 RMK A01 T02730168  RH  053%=      5-min Rain = 0
KWA1 200536Z 15005KT 27/17 A3004 RMK A01 T02730168  RH  053%=      5-min Rain = 0
KWA1 200537Z 15005KT 27/17 A3004 RMK A01 T02730169  RH  053%=      5-min Rain = 0
KWA1 200538Z 15005KT 27/17 A3004 RMK A01 T02720169  RH  053%=      5-min Rain = 0
KWA1 200539Z 16005KT 27/17 A3004 RMK A01 T02710169  RH  054%=      5-min Rain = 0
KWA1 200540Z 16005KT 27/17 A3004 RMK A01 T02700169  RH  054%=      5-min Rain = 0
KWA1 200541Z 16005KT 27/17 A3004 RMK A01 T02700169  RH  054%=      5-min Rain = 0
KWA1 200542Z 16005KT 27/17 A3004 RMK A01 T02690169  RH  054%=      5-min Rain = 0
KWA1 200543Z 16005KT 27/17 A3004 RMK A01 T02680169  RH  054%=      5-min Rain = 0
KWA1 200544Z 16005KT 27/17 A3004 RMK A01 T02680169  RH  055%=      5-min Rain = 0
KWA1 200545Z 16005KT 27/17 A3004 RMK A01 T02670169  RH  055%=      5-min Rain = 0
KWA1 200546Z 16005KT 27/17 A3004 RMK A01 T02670169  RH  055%=      5-min Rain = 0
KWA1 200547Z 16005KT 27/17 A3004 RMK A01 T02670169  RH  055%=      5-min Rain = 0
KWA1 200548Z 16005KT 27/17 A3004 RMK A01 T02670169  RH  055%=      5-min Rain = 0
KWA1 200549Z 16005KT 27/17 A3004 RMK A01 T02670169  RH  055%=      5-min Rain = 0
KWA1 200550Z 16005KT 27/17 A3004 RMK A01 T02670169  RH  055%=      5-min Rain = 0
KWA1 200551Z 16005KT 27/17 A3004 RMK A01 T02660169  RH  055%=      5-min Rain = 0
KWA1 200552Z 17005KT 27/17 A3004 RMK A01 T02660169  RH  055%=      5-min Rain = 0
KWA1 200553Z 17005KT 27/17 A3004 RMK A01 T02660169  RH  055%=      5-min Rain = 0
KWA1 200554Z 17005KT 27/17 A3004 RMK A01 T02660169  RH  055%=      5-min Rain = 0
KWA1 200555Z 17005KT 27/17 A3004 RMK A01 T02660170  RH  055%=      5-min Rain = 0
KWA1 200556Z 17005KT 27/17 A3004 RMK A01 T02650170  RH  056%=      5-min Rain = 0
KWA1 200557Z 17005KT 27/17 A3004 RMK A01 T02660170  RH  056%=      5-min Rain = 0
KWA1 200558Z 16006KT 27/17 A3004 RMK A01 T02660170  RH  056%=      5-min Rain = 0
KWA1 200559Z 16005KT 27/17 A3004 RMK A01 T02660170  RH  056%=      5-min Rain = 0
KWA1 200600Z 16006KT 27/17 A3004 RMK A01 T02660170  RH  056%=      5-min Rain = 0
KWA1 200601Z 16006KT 27/17 A3004 RMK A01 T02660170  RH  056%=      5-min Rain = 0
KWA1 200602Z 16006KT 27/17 A3004 RMK A01 T02660171  RH  056%=      5-min Rain = 0
KWA1 200603Z 16006KT 27/17 A3004 RMK A01 T02660171  RH  056%=      5-min Rain = 0
KWA1 200604Z 16006KT 27/17 A3004 RMK A01 T02660171  RH  056%=      5-min Rain = 0
KWA1 200605Z 16006KT 27/17 A3004 RMK A01 T02660171  RH  056%=      5-min Rain = 0
KWA1 200606Z 16006KT 27/17 A3004 RMK A01 T02660171  RH  056%=      5-min Rain = 0
KWA1 200607Z 16006KT 27/17 A3004 RMK A01 T02660171  RH  056%=      5-min Rain = 0
KWA1 200608Z 16006KT 27/17 A3004 RMK A01 T02660171  RH  056%=      5-min Rain = 0
KWA1 200609Z 16006KT 27/17 A3004 RMK A01 T02660171  RH  056%=      5-min Rain = 0
KWA1 200610Z 16006KT 27/17 A3004 RMK A01 T02660171  RH  056%=      5-min Rain = 0
KWA1 200611Z 16006KT 27/17 A3004 RMK A01 T02660171  RH  056%=      5-min Rain = 0
KWA1 200612Z 16006KT 27/17 A3004 RMK A01 T02670171  RH  056%=      5-min Rain = 0
KWA1 200613Z 16006KT 27/17 A3004 RMK A01 T02680172  RH  056%=      5-min Rain = 0
KWA1 200614Z 16006KT 27/17 A3004 RMK A01 T02680172  RH  056%=      5-min Rain = 0
KWA1 200615Z 16006KT 27/17 A3004 RMK A01 T02680172  RH  056%=      5-min Rain = 0
KWA1 200616Z 16006KT 27/17 A3004 RMK A01 T02680173  RH  056%=      5-min Rain = 0
KWA1 200617Z 16006KT 27/17 A3004 RMK A01 T02670172  RH  056%=      5-min Rain = 0
KWA1 200618Z 16006KT 27/17 A3004 RMK A01 T02670173  RH  056%=      5-min Rain = 0
KWA1 200619Z 16006KT 27/17 A3004 RMK A01 T02670173  RH  056%=      5-min Rain = 0
KWA1 200620Z 16006KT 27/17 A3004 RMK A01 T02670173  RH  056%=      5-min Rain = 0
KWA1 200621Z 16006KT 27/17 A3004 RMK A01 T02670173  RH  056%=      5-min Rain = 0
KWA1 200622Z 16006KT 27/17 A3004 RMK A01 T02660172  RH  056%=      5-min Rain = 0
KWA1 200623Z 16006KT 27/17 A3004 RMK A01 T02670172  RH  056%=      5-min Rain = 0
KWA1 200624Z 16006KT 27/17 A3004 RMK A01 T02670173  RH  056%=      5-min Rain = 0
KWA1 200625Z 16006KT 27/17 A3004 RMK A01 T02670172  RH  056%=      5-min Rain = 0
KWA1 200626Z 16006KT 27/17 A3004 RMK A01 T02670172  RH  056%=      5-min Rain = 0
KWA1 200627Z 16005KT 27/17 A3004 RMK A01 T02670172  RH  056%=      5-min Rain = 0
KWA1 200628Z 16005KT 27/17 A3004 RMK A01 T02670173  RH  056%=      5-min Rain = 0
KWA1 200629Z 16005KT 27/17 A3004 RMK A01 T02670173  RH  056%=      5-min Rain = 0
KWA1 200630Z 16006KT 27/17 A3004 RMK A01 T02670173  RH  056%=      5-min Rain = 0
KWA1 200631Z 16005KT 27/17 A3004 RMK A01 T02670173  RH  056%=      5-min Rain = 0
KWA1 200632Z 16006KT 27/17 A3004 RMK A01 T02670173  RH  056%=      5-min Rain = 0
KWA1 200633Z 16005KT 27/17 A3004 RMK A01 T02660173  RH  057%=      5-min Rain = 0
KWA1 200634Z 16006KT 27/17 A3004 RMK A01 T02660173  RH  057%=      5-min Rain = 0
KWA1 200635Z 16006KT 27/17 A3004 RMK A01 T02660173  RH  057%=      5-min Rain = 0
KWA1 200636Z 16006KT 27/17 A3004 RMK A01 T02660173  RH  057%=      5-min Rain = 0
KWA1 200637Z 16006KT 27/17 A3004 RMK A01 T02660174  RH  057%=      5-min Rain = 0
KWA1 200638Z 16006KT 27/17 A3004 RMK A01 T02660174  RH  057%=      5-min Rain = 0
KWA1 200639Z 16006KT 27/17 A3004 RMK A01 T02660174  RH  057%=      5-min Rain = 0
KWA1 200640Z 16006KT 27/17 A3003 RMK A01 T02660174  RH  057%=      5-min Rain = 0
KWA1 200641Z 16006KT 27/17 A3003 RMK A01 T02660173  RH  057%=      5-min Rain = 0
KWA1 200642Z 16006KT 27/17 A3003 RMK A01 T02660173  RH  057%=      5-min Rain = 0
KWA1 200643Z 15006KT 27/17 A3003 RMK A01 T02660174  RH  057%=      5-min Rain = 0
KWA1 200644Z 16006KT 27/17 A3003 RMK A01 T02660174  RH  057%=      5-min Rain = 0
KWA1 200645Z 16006KT 27/17 A3003 RMK A01 T02660174  RH  057%=      5-min Rain = 0
KWA1 200646Z 16005KT 27/17 A3003 RMK A01 T02660174  RH  057%=      5-min Rain = 0
KWA1 200647Z 16006KT 27/17 A3003 RMK A01 T02660174  RH  057%=      5-min Rain = 0
KWA1 200648Z 16006KT 27/18 A3003 RMK A01 T02660175  RH  057%=      5-min Rain = 0
KWA1 200649Z 16006KT 27/17 A3003 RMK A01 T02660174  RH  057%=      5-min Rain = 0
KWA1 200650Z 16005KT 27/17 A3003 RMK A01 T02660174  RH  057%=      5-min Rain = 0
KWA1 200651Z 16005KT 27/17 A3003 RMK A01 T02660174  RH  057%=      5-min Rain = 0
KWA1 200652Z 16006KT 27/17 A3003 RMK A01 T02660174  RH  057%=      5-min Rain = 0
KWA1 200653Z 16005KT 27/17 A3003 RMK A01 T02660174  RH  057%=      5-min Rain = 0
KWA1 200654Z 16006KT 27/17 A3003 RMK A01 T02660174  RH  057%=      5-min Rain = 0
KWA1 200655Z 16006KT 27/17 A3003 RMK A01 T02670174  RH  057%=      5-min Rain = 0
KWA1 200656Z 16005KT 27/17 A3003 RMK A01 T02670174  RH  057%=      5-min Rain = 0
KWA1 200657Z 16006KT 27/18 A3003 RMK A01 T02670175  RH  057%=      5-min Rain = 0
KWA1 200658Z 16006KT 27/18 A3003 RMK A01 T02670175  RH  057%=      5-min Rain = 0
KWA1 200659Z 16006KT 27/18 A3003 RMK A01 T02670175  RH  057%=      5-min Rain = 0
KWA1 200700Z 16005KT 27/18 A3003 RMK A01 T02670175  RH  057%=      5-min Rain = 0
KWA1 200701Z 16005KT 27/18 A3003 RMK A01 T02660175  RH  057%=      5-min Rain = 0
KWA1 200702Z 16006KT 27/18 A3003 RMK A01 T02670175  RH  057%=      5-min Rain = 0
KWA1 200703Z 16005KT 27/18 A3003 RMK A01 T02670175  RH  057%=      5-min Rain = 0
KWA1 200704Z 16006KT 27/18 A3003 RMK A01 T02670176  RH  057%=      5-min Rain = 0
KWA1 200705Z 16006KT 27/18 A3003 RMK A01 T02660175  RH  057%=      5-min Rain = 0
KWA1 200706Z 16005KT 27/18 A3003 RMK A01 T02660175  RH  057%=      5-min Rain = 0
KWA1 200707Z 16006KT 27/18 A3003 RMK A01 T02660175  RH  058%=      5-min Rain = 0
KWA1 200708Z 16006KT 27/18 A3003 RMK A01 T02660175  RH  058%=      5-min Rain = 0
KWA1 200709Z 16005KT 27/18 A3003 RMK A01 T02660175  RH  058%=      5-min Rain = 0
KWA1 200710Z 16006KT 27/18 A3003 RMK A01 T02660176  RH  058%=      5-min Rain = 0
KWA1 200711Z 16006KT 27/18 A3003 RMK A01 T02660176  RH  058%=      5-min Rain = 0
KWA1 200712Z 16006KT 27/18 A3003 RMK A01 T02650175  RH  058%=      5-min Rain = 0
KWA1 200713Z 15006KT 27/18 A3003 RMK A01 T02660176  RH  058%=      5-min Rain = 0
KWA1 200714Z 15006KT 27/18 A3003 RMK A01 T02650176  RH  058%=      5-min Rain = 0
KWA1 200715Z 15005KT 27/18 A3003 RMK A01 T02650176  RH  058%=      5-min Rain = 0
KWA1 200716Z 15006KT 27/18 A3003 RMK A01 T02650175  RH  058%=      5-min Rain = 0
KWA1 200717Z 15005KT 27/18 A3003 RMK A01 T02650176  RH  058%=      5-min Rain = 0
KWA1 200718Z 15005KT 27/18 A3003 RMK A01 T02650175  RH  058%=      5-min Rain = 0
KWA1 200719Z 15006KT 27/18 A3003 RMK A01 T02650175  RH  058%=      5-min Rain = 0
KWA1 200720Z 15006KT 27/18 A3003 RMK A01 T02650175  RH  058%=      5-min Rain = 0
KWA1 200721Z 15005KT 27/18 A3003 RMK A01 T02650176  RH  058%=      5-min Rain = 0
KWA1 200722Z 15006KT 27/18 A3003 RMK A01 T02650175  RH  058%=      5-min Rain = 0
KWA1 200723Z 15006KT 27/18 A3003 RMK A01 T02650175  RH  058%=      5-min Rain = 0
KWA1 200724Z 15006KT 27/18 A3003 RMK A01 T02650175  RH  058%=      5-min Rain = 0
KWA1 200725Z 15006KT 27/18 A3003 RMK A01 T02650175  RH  058%=      5-min Rain = 0
KWA1 200726Z 15006KT 27/18 A3003 RMK A01 T02650175  RH  058%=      5-min Rain = 0
KWA1 200727Z 15006KT 27/17 A3003 RMK A01 T02650174  RH  058%=      5-min Rain = 0
KWA1 200728Z 15006KT 27/17 A3003 RMK A01 T02650174  RH  057%=      5-min Rain = 0
KWA1 200729Z 15006KT 27/18 A3003 RMK A01 T02660175  RH  057%=      5-min Rain = 0
KWA1 200730Z 15006KT 27/18 A3003 RMK A01 T02660175  RH  057%=      5-min Rain = 0
KWA1 200731Z 14006KT 27/17 A3003 RMK A01 T02660174  RH  057%=      5-min Rain = 0
KWA1 200732Z 15006KT 27/17 A3003 RMK A01 T02660174  RH  057%=      5-min Rain = 0
KWA1 200733Z 14006KT 27/18 A3003 RMK A01 T02660175  RH  057%=      5-min Rain = 0
KWA1 200734Z 14006KT 27/17 A3003 RMK A01 T02660174  RH  057%=      5-min Rain = 0
KWA1 200735Z 15006KT 27/18 A3003 RMK A01 T02670175  RH  057%=      5-min Rain = 0
KWA1 200736Z 15006KT 27/18 A3003 RMK A01 T02670175  RH  057%=      5-min Rain = 0
KWA1 200737Z 15007KT 27/18 A3003 RMK A01 T02660175  RH  057%=      5-min Rain = 0
KWA1 200738Z 15007KT 27/18 A3003 RMK A01 T02660175  RH  057%=      5-min Rain = 0
KWA1 200739Z 15007KT 27/18 A3003 RMK A01 T02660175  RH  057%=      5-min Rain = 0
KWA1 200740Z 15007KT 27/17 A3003 RMK A01 T02650174  RH  057%=      5-min Rain = 0
KWA1 200741Z 15007KT 27/18 A3003 RMK A01 T02660175  RH  057%=      5-min Rain = 0
KWA1 200742Z 16007KT 27/18 A3003 RMK A01 T02660175  RH  057%=      5-min Rain = 0
KWA1 200743Z 15007KT 27/18 A3003 RMK A01 T02670175  RH  057%=      5-min Rain = 0
KWA1 200744Z 16007KT 27/18 A3003 RMK A01 T02670175  RH  057%=      5-min Rain = 0
KWA1 200745Z 16007KT 27/18 A3003 RMK A01 T02660175  RH  057%=      5-min Rain = 0
KWA1 200746Z 16007KT 27/18 A3003 RMK A01 T02660175  RH  057%=      5-min Rain = 0
KWA1 200747Z 16006KT 27/18 A3003 RMK A01 T02660176  RH  058%=      5-min Rain = 0
KWA1 200748Z 16007KT 27/18 A3003 RMK A01 T02660176  RH  058%=      5-min Rain = 0
KWA1 200749Z 16006KT 27/18 A3003 RMK A01 T02650176  RH  058%=      5-min Rain = 0
KWA1 200750Z 16006KT 27/18 A3003 RMK A01 T02650176  RH  058%=      5-min Rain = 0
KWA1 200751Z 16007KT 27/18 A3003 RMK A01 T02650176  RH  058%=      5-min Rain = 0
KWA1 200752Z 16006KT 27/18 A3003 RMK A01 T02650176  RH  058%=      5-min Rain = 0
KWA1 200753Z 16006KT 27/18 A3003 RMK A01 T02650176  RH  058%=      5-min Rain = 0
KWA1 200754Z 16006KT 27/18 A3003 RMK A01 T02650176  RH  058%=      5-min Rain = 0
KWA1 200755Z 17006KT 27/18 A3003 RMK A01 T02650176  RH  058%=      5-min Rain = 0
KWA1 200756Z 16007KT 26/18 A3003 RMK A01 T02640176  RH  058%=      5-min Rain = 0
KWA1 200757Z 16006KT 26/18 A3003 RMK A01 T02640176  RH  058%=      5-min Rain = 0
KWA1 200758Z 16006KT 26/18 A3003 RMK A01 T02640176  RH  058%=      5-min Rain = 0
KWA1 200759Z 16006KT 26/18 A3003 RMK A01 T02640176  RH  058%=      5-min Rain = 0
KWA1 200800Z 16006KT 26/18 A3003 RMK A01 T02640176  RH  058%=      5-min Rain = 0
KWA1 200801Z 16006KT 26/18 A3003 RMK A01 T02640176  RH  058%=      5-min Rain = 0
KWA1 200802Z 16006KT 26/18 A3003 RMK A01 T02640176  RH  058%=      5-min Rain = 0
KWA1 200803Z 16006KT 27/18 A3003 RMK A01 T02650176  RH  058%=      5-min Rain = 0
KWA1 200804Z 16006KT 27/18 A3003 RMK A01 T02650176  RH  058%=      5-min Rain = 0
KWA1 200805Z 16006KT 27/18 A3003 RMK A01 T02650177  RH  058%=      5-min Rain = 0
KWA1 200806Z 16007KT 27/18 A3003 RMK A01 T02650176  RH  058%=      5-min Rain = 0
KWA1 200807Z 16007KT 27/18 A3003 RMK A01 T02650176  RH  058%=      5-min Rain = 0
KWA1 200808Z 17007KT 27/18 A3003 RMK A01 T02660177  RH  058%=      5-min Rain = 0
KWA1 200809Z 17007KT 27/18 A3003 RMK A01 T02660177  RH  058%=      5-min Rain = 0
KWA1 200810Z 17008KT 27/18 A3003 RMK A01 T02660177  RH  058%=      5-min Rain = 0
KWA1 200811Z 17008KT 27/18 A3003 RMK A01 T02670177  RH  058%=      5-min Rain = 0
KWA1 200812Z 16008KT 27/18 A3003 RMK A01 T02680178  RH  058%=      5-min Rain = 0
KWA1 200813Z 17007KT 27/18 A3003 RMK A01 T02680178  RH  057%=      5-min Rain = 0
KWA1 200814Z 17008KT 27/18 A3003 RMK A01 T02680177  RH  057%=      5-min Rain = 0
KWA1 200815Z 16006KT 27/18 A3003 RMK A01 T02680178  RH  058%=      5-min Rain = 0
KWA1 200816Z 16007KT 27/18 A3003 RMK A01 T02680178  RH  058%=      5-min Rain = 0
KWA1 200817Z 16008KT 27/18 A3003 RMK A01 T02680178  RH  058%=      5-min Rain = 0
KWA1 200818Z 16007KT 27/18 A3003 RMK A01 T02690178  RH  058%=      5-min Rain = 0
KWA1 200819Z 17008KT 27/18 A3003 RMK A01 T02680178  RH  058%=      5-min Rain = 0
KWA1 200820Z 16007KT 27/18 A3003 RMK A01 T02680179  RH  058%=      5-min Rain = 0
KWA1 200821Z 17007KT 27/18 A3003 RMK A01 T02680179  RH  058%=      5-min Rain = 0
KWA1 200822Z 17006KT 27/18 A3003 RMK A01 T02680179  RH  058%=      5-min Rain = 0
KWA1 200823Z 17007KT 27/18 A3003 RMK A01 T02680179  RH  058%=      5-min Rain = 0
KWA1 200824Z 16007KT 27/18 A3002 RMK A01 T02680180  RH  058%=      5-min Rain = 0
KWA1 200825Z 17008KT 27/18 A3002 RMK A01 T02680180  RH  059%=      5-min Rain = 0
KWA1 200826Z 17007KT 27/18 A3002 RMK A01 T02680180  RH  059%=      5-min Rain = 0
KWA1 200827Z 17007KT 27/18 A3002 RMK A01 T02670180  RH  059%=      5-min Rain = 0
KWA1 200828Z 17008KT 27/18 A3002 RMK A01 T02670180  RH  059%=      5-min Rain = 0
KWA1 200829Z 17009KT 27/18 A3002 RMK A01 T02680181  RH  059%=      5-min Rain = 0
KWA1 200830Z 17008KT 27/18 A3002 RMK A01 T02690181  RH  059%=      5-min Rain = 0
KWA1 200831Z 16009KT 27/18 A3002 RMK A01 T02690181  RH  059%=      5-min Rain = 0
KWA1 200832Z 17007KT 27/18 A3002 RMK A01 T02690181  RH  059%=      5-min Rain = 0
KWA1 200833Z 17008KT 27/18 A3002 RMK A01 T02690182  RH  059%=      5-min Rain = 0
KWA1 200834Z 17008KT 27/18 A3002 RMK A01 T02680182  RH  059%=      5-min Rain = 0
KWA1 200835Z 16010KT 27/18 A3002 RMK A01 T02680182  RH  059%=      5-min Rain = 0
KWA1 200836Z 17010KT 27/18 A3002 RMK A01 T02690183  RH  059%=      5-min Rain = 0
KWA1 200837Z 16009KT 27/18 A3002 RMK A01 T02690183  RH  059%=      5-min Rain = 0
KWA1 200838Z 16008KT 27/18 A3002 RMK A01 T02690183  RH  059%=      5-min Rain = 0
KWA1 200839Z 16010KT 27/18 A3002 RMK A01 T02690184  RH  059%=      5-min Rain = 0
KWA1 200840Z 16009KT 27/18 A3002 RMK A01 T02690184  RH  060%=      5-min Rain = 0
KWA1 200841Z 17010KT 27/19 A3002 RMK A01 T02690185  RH  060%=      5-min Rain = 0
KWA1 200842Z 17008KT 27/19 A3002 RMK A01 T02690185  RH  060%=      5-min Rain = 0
KWA1 200843Z 17010KT 27/19 A3002 RMK A01 T02690186  RH  060%=      5-min Rain = 0
KWA1 200844Z 17011KT 27/19 A3002 RMK A01 T02690187  RH  061%=      5-min Rain = 0
KWA1 200845Z 16010KT 27/19 A3002 RMK A01 T02690187  RH  061%=      5-min Rain = 0
KWA1 200846Z 16008KT 27/19 A3002 RMK A01 T02690187  RH  061%=      5-min Rain = 0
KWA1 200847Z 17008KT 27/19 A3002 RMK A01 T02690187  RH  061%=      5-min Rain = 0
KWA1 200848Z 16010KT 27/19 A3002 RMK A01 T02680187  RH  061%=      5-min Rain = 0
KWA1 200849Z 16009KT 27/19 A3002 RMK A01 T02680188  RH  061%=      5-min Rain = 0
KWA1 200850Z 16010KT 27/19 A3002 RMK A01 T02680188  RH  062%=      5-min Rain = 0
KWA1 200851Z 16008KT 27/19 A3003 RMK A01 T02680188  RH  062%=      5-min Rain = 0
KWA1 200852Z 16010KT 27/19 A3003 RMK A01 T02680189  RH  062%=      5-min Rain = 0
KWA1 200853Z 16009KT 27/19 A3003 RMK A01 T02670189  RH  062%=      5-min Rain = 0
KWA1 200854Z 16009KT 27/19 A3003 RMK A01 T02670189  RH  062%=      5-min Rain = 0
KWA1 200855Z 16010KT 27/19 A3003 RMK A01 T02670190  RH  062%=      5-min Rain = 0
KWA1 200856Z 16008KT 27/19 A3003 RMK A01 T02670189  RH  063%=      5-min Rain = 0
KWA1 200857Z 16008KT 27/19 A3003 RMK A01 T02670190  RH  063%=      5-min Rain = 0
KWA1 200858Z 16009KT 27/19 A3003 RMK A01 T02660190  RH  063%=      5-min Rain = 0
KWA1 200859Z 17008KT 27/19 A3003 RMK A01 T02660190  RH  063%=      5-min Rain = 0
KWA1 200900Z 16009KT 27/19 A3003 RMK A01 T02660191  RH  063%=      5-min Rain = 0
KWA1 200901Z 17009KT 27/19 A3003 RMK A01 T02660191  RH  063%=      5-min Rain = 0
KWA1 200902Z 16009KT 27/19 A3003 RMK A01 T02660191  RH  063%=      5-min Rain = 0
KWA1 200903Z 16009KT 27/19 A3003 RMK A01 T02660191  RH  063%=      5-min Rain = 0
KWA1 200904Z 16010KT 27/19 A3003 RMK A01 T02660191  RH  064%=      5-min Rain = 0
KWA1 200905Z 16008KT 27/19 A3003 RMK A01 T02660192  RH  064%=      5-min Rain = 0
KWA1 200906Z 16009KT 27/19 A3003 RMK A01 T02660192  RH  064%=      5-min Rain = 0
KWA1 200907Z 16009KT 27/19 A3003 RMK A01 T02660192  RH  064%=      5-min Rain = 0
KWA1 200908Z 16010KT 27/19 A3003 RMK A01 T02660192  RH  064%=      5-min Rain = 0
KWA1 200909Z 16009KT 27/19 A3003 RMK A01 T02650192  RH  064%=      5-min Rain = 0
KWA1 200910Z 16008KT 27/19 A3003 RMK A01 T02650193  RH  064%=      5-min Rain = 0
KWA1 200911Z 16008KT 27/19 A3003 RMK A01 T02650193  RH  064%=      5-min Rain = 0
KWA1 200912Z 16009KT 27/19 A3003 RMK A01 T02650193  RH  065%=      5-min Rain = 0
KWA1 200913Z 17009KT 27/19 A3003 RMK A01 T02650193  RH  065%=      5-min Rain = 0
KWA1 200914Z 17010KT 27/19 A3003 RMK A01 T02650193  RH  065%=      5-min Rain = 0
KWA1 200915Z 17008KT 27/19 A3003 RMK A01 T02650193  RH  065%=      5-min Rain = 0
KWA1 200916Z 17009KT 27/19 A3003 RMK A01 T02650194  RH  065%=      5-min Rain = 0
KWA1 200917Z 16011KT 26/19 A3003 RMK A01 T02640194  RH  065%=      5-min Rain = 0
KWA1 200918Z 17010KT 27/19 A3003 RMK A01 T02650194  RH  065%=      5-min Rain = 0
KWA1 200919Z 17009KT 27/20 A3003 RMK A01 T02650195  RH  065%=      5-min Rain = 0
KWA1 200920Z 17009KT 27/19 A3003 RMK A01 T02650194  RH  065%=      5-min Rain = 0
KWA1 200921Z 17009KT 27/20 A3003 RMK A01 T02650195  RH  065%=      5-min Rain = 0
KWA1 200922Z 17010KT 27/19 A3003 RMK A01 T02650194  RH  065%=      5-min Rain = 0
KWA1 200923Z 17009KT 27/20 A3003 RMK A01 T02650195  RH  065%=      5-min Rain = 0
KWA1 200924Z 18010KT 27/20 A3003 RMK A01 T02650195  RH  066%=      5-min Rain = 0
KWA1 200925Z 17010KT 27/20 A3003 RMK A01 T02650196  RH  066%=      5-min Rain = 0
KWA1 200926Z 17008KT 27/20 A3003 RMK A01 T02650196  RH  066%=      5-min Rain = 0
KWA1 200927Z 17010KT 26/20 A3003 RMK A01 T02640196  RH  066%=      5-min Rain = 0
KWA1 200928Z 17009KT 26/20 A3003 RMK A01 T02640196  RH  066%=      5-min Rain = 0
KWA1 200929Z 17009KT 26/20 A3003 RMK A01 T02640196  RH  066%=      5-min Rain = 0
KWA1 200930Z 17008KT 26/20 A3003 RMK A01 T02640196  RH  066%=      5-min Rain = 0
KWA1 200931Z 16008KT 26/20 A3003 RMK A01 T02640197  RH  066%=      5-min Rain = 0
KWA1 200932Z 17009KT 26/20 A3003 RMK A01 T02630197  RH  067%=      5-min Rain = 0
KWA1 200933Z 17009KT 26/20 A3003 RMK A01 T02630197  RH  067%=      5-min Rain = 0
KWA1 200934Z 17010KT 26/20 A3003 RMK A01 T02630197  RH  067%=      5-min Rain = 0
KWA1 200935Z 16009KT 26/20 A3003 RMK A01 T02630197  RH  067%=      5-min Rain = 0
KWA1 200936Z 17009KT 26/20 A3003 RMK A01 T02630197  RH  067%=      5-min Rain = 0
KWA1 200937Z 17010KT 26/20 A3003 RMK A01 T02630197  RH  067%=      5-min Rain = 0
KWA1 200938Z 17010KT 26/20 A3003 RMK A01 T02630197  RH  067%=      5-min Rain = 0
KWA1 200939Z 16011KT 26/20 A3003 RMK A01 T02630197  RH  067%=      5-min Rain = 0
KWA1 200940Z 17010KT 26/20 A3003 RMK A01 T02630198  RH  067%=      5-min Rain = 0
KWA1 200941Z 16010KT 26/20 A3003 RMK A01 T02630198  RH  067%=      5-min Rain = 0
KWA1 200942Z 17011KT 26/20 A3003 RMK A01 T02630198  RH  067%=      5-min Rain = 0
KWA1 200943Z 17010KT 26/20 A3003 RMK A01 T02630198  RH  067%=      5-min Rain = 0
KWA1 200944Z 17011KT 26/20 A3003 RMK A01 T02630199  RH  068%=      5-min Rain = 0
KWA1 200945Z 17009KT 26/20 A3003 RMK A01 T02630199  RH  068%=      5-min Rain = 0
KWA1 200946Z 16009KT 26/20 A3003 RMK A01 T02630199  RH  068%=      5-min Rain = 0
KWA1 200947Z 17010KT 26/20 A3003 RMK A01 T02620199  RH  068%=      5-min Rain = 0
KWA1 200948Z 17009KT 26/20 A3003 RMK A01 T02620199  RH  068%=      5-min Rain = 0
KWA1 200949Z 16009KT 26/20 A3003 RMK A01 T02620199  RH  068%=      5-min Rain = 0
KWA1 200950Z 17010KT 26/20 A3003 RMK A01 T02620199  RH  068%=      5-min Rain = 0
KWA1 200951Z 17011KT 26/20 A3003 RMK A01 T02620199  RH  069%=      5-min Rain = 0
KWA1 200952Z 16011KT 26/20 A3003 RMK A01 T02610200  RH  069%=      5-min Rain = 0
KWA1 200953Z 16010KT 26/20 A3003 RMK A01 T02610200  RH  069%=      5-min Rain = 0
KWA1 200954Z 16010KT 26/20 A3003 RMK A01 T02610199  RH  069%=      5-min Rain = 0
KWA1 200955Z 17010KT 26/20 A3003 RMK A01 T02620200  RH  069%=      5-min Rain = 0
KWA1 200956Z 16010KT 26/20 A3003 RMK A01 T02620200  RH  069%=      5-min Rain = 0
KWA1 200957Z 16009KT 26/20 A3003 RMK A01 T02610200  RH  069%=      5-min Rain = 0
KWA1 200958Z 16009KT 26/20 A3003 RMK A01 T02610200  RH  069%=      5-min Rain = 0
KWA1 200959Z 17010KT 26/20 A3003 RMK A01 T02600200  RH  069%=      5-min Rain = 0
KWA1 201000Z 17009KT 26/20 A3003 RMK A01 T02600200  RH  069%=      5-min Rain = 0
KWA1 201001Z 17009KT 26/20 A3003 RMK A01 T02600200  RH  070%=      5-min Rain = 0
KWA1 201002Z 16009KT 26/20 A3003 RMK A01 T02600200  RH  070%=      5-min Rain = 0
KWA1 201003Z 17008KT 26/20 A3003 RMK A01 T02590200  RH  070%=      5-min Rain = 0
KWA1 201004Z 16010KT 26/20 A3003 RMK A01 T02590200  RH  070%=      5-min Rain = 0
KWA1 201005Z 16008KT 26/20 A3003 RMK A01 T02590201  RH  070%=      5-min Rain = 0
KWA1 201006Z 17010KT 26/20 A3003 RMK A01 T02590200  RH  070%=      5-min Rain = 0
KWA1 201007Z 16010KT 26/20 A3003 RMK A01 T02580201  RH  070%=      5-min Rain = 0
KWA1 201008Z 17009KT 26/20 A3003 RMK A01 T02580200  RH  070%=      5-min Rain = 0
KWA1 201009Z 17008KT 26/20 A3003 RMK A01 T02580201  RH  071%=      5-min Rain = 0
KWA1 201010Z 17009KT 26/20 A3003 RMK A01 T02580201  RH  071%=      5-min Rain = 0
KWA1 201011Z 17008KT 26/20 A3003 RMK A01 T02580201  RH  071%=      5-min Rain = 0
KWA1 201012Z 17008KT 26/20 A3003 RMK A01 T02580201  RH  071%=      5-min Rain = 0
KWA1 201013Z 17009KT 26/20 A3003 RMK A01 T02570201  RH  071%=      5-min Rain = 0
KWA1 201014Z 16008KT 26/20 A3003 RMK A01 T02570201  RH  071%=      5-min Rain = 0
KWA1 201015Z 17009KT 26/20 A3003 RMK A01 T02570201  RH  071%=      5-min Rain = 0
KWA1 201016Z 17010KT 26/20 A3003 RMK A01 T02570201  RH  071%=      5-min Rain = 0
KWA1 201017Z 16009KT 26/20 A3003 RMK A01 T02570202  RH  072%=      5-min Rain = 0
KWA1 201018Z 16009KT 26/20 A3003 RMK A01 T02570202  RH  072%=      5-min Rain = 0
KWA1 201019Z 16009KT 26/20 A3003 RMK A01 T02570202  RH  072%=      5-min Rain = 0
KWA1 201020Z 16008KT 26/20 A3003 RMK A01 T02570202  RH  072%=      5-min Rain = 0
KWA1 201021Z 16009KT 26/20 A3003 RMK A01 T02570202  RH  072%=      5-min Rain = 0
KWA1 201022Z 16008KT 26/20 A3003 RMK A01 T02560202  RH  072%=      5-min Rain = 0
KWA1 201023Z 16009KT 26/20 A3003 RMK A01 T02560203  RH  072%=      5-min Rain = 0
KWA1 201024Z 16008KT 26/20 A3003 RMK A01 T02560203  RH  072%=      5-min Rain = 0
KWA1 201025Z 16008KT 26/20 A3003 RMK A01 T02560203  RH  073%=      5-min Rain = 0
KWA1 201026Z 16009KT 26/20 A3003 RMK A01 T02550203  RH  073%=      5-min Rain = 0
KWA1 201027Z 17009KT 26/20 A3003 RMK A01 T02550203  RH  073%=      5-min Rain = 0
KWA1 201028Z 17008KT 26/20 A3004 RMK A01 T02550204  RH  073%=      5-min Rain = 0
KWA1 201029Z 16008KT 26/20 A3004 RMK A01 T02550204  RH  073%=      5-min Rain = 0
KWA1 201030Z 17009KT 26/20 A3003 RMK A01 T02550204  RH  074%=      5-min Rain = 0
KWA1 201031Z 16009KT 25/20 A3003 RMK A01 T02540204  RH  074%=      5-min Rain = 0
KWA1 201032Z 16009KT 26/21 A3003 RMK A01 T02550205  RH  074%=      5-min Rain = 0
KWA1 201033Z 17009KT 26/21 A3003 RMK A01 T02550205  RH  074%=      5-min Rain = 0
KWA1 201034Z 17008KT 26/21 A3003 RMK A01 T02550205  RH  074%=      5-min Rain = 0
KWA1 201035Z 17009KT 26/21 A3003 RMK A01 T02550205  RH  074%=      5-min Rain = 0
KWA1 201036Z 17008KT 26/21 A3003 RMK A01 T02550205  RH  074%=      5-min Rain = 0
KWA1 201037Z 17008KT 26/21 A3003 RMK A01 T02550205  RH  074%=      5-min Rain = 0
KWA1 201038Z 17008KT 26/21 A3003 RMK A01 T02550206  RH  074%=      5-min Rain = 0
KWA1 201039Z 17009KT 26/21 A3003 RMK A01 T02550206  RH  074%=      5-min Rain = 0
KWA1 201040Z 17009KT 26/21 A3003 RMK A01 T02550206  RH  074%=      5-min Rain = 0
KWA1 201041Z 17008KT 26/21 A3003 RMK A01 T02550206  RH  075%=      5-min Rain = 0
KWA1 201042Z 17009KT 26/21 A3003 RMK A01 T02550207  RH  075%=      5-min Rain = 0
KWA1 201043Z 17009KT 26/21 A3004 RMK A01 T02550207  RH  075%=      5-min Rain = 0
KWA1 201044Z 17008KT 25/21 A3004 RMK A01 T02540206  RH  075%=      5-min Rain = 0
KWA1 201045Z 17008KT 26/21 A3004 RMK A01 T02550207  RH  075%=      5-min Rain = 0
KWA1 201046Z 17010KT 25/21 A3004 RMK A01 T02540207  RH  075%=      5-min Rain = 0
KWA1 201047Z 17011KT 25/21 A3004 RMK A01 T02540208  RH  075%=      5-min Rain = 0
KWA1 201048Z 17009KT 26/21 A3004 RMK A01 T02550208  RH  075%=      5-min Rain = 0
KWA1 201049Z 17009KT 26/21 A3004 RMK A01 T02550208  RH  075%=      5-min Rain = 0
KWA1 201050Z 17009KT 26/21 A3004 RMK A01 T02550208  RH  075%=      5-min Rain = 0
KWA1 201051Z 17009KT 26/21 A3004 RMK A01 T02550208  RH  075%=      5-min Rain = 0
KWA1 201052Z 17009KT 26/21 A3004 RMK A01 T02560208  RH  075%=      5-min Rain = 0
KWA1 201053Z 17008KT 26/21 A3004 RMK A01 T02560209  RH  075%=      5-min Rain = 0
KWA1 201054Z 17007KT 26/21 A3004 RMK A01 T02560209  RH  075%=      5-min Rain = 0
KWA1 201055Z 17009KT 26/21 A3004 RMK A01 T02550208  RH  075%=      5-min Rain = 0
KWA1 201056Z 18009KT 26/21 A3004 RMK A01 T02550209  RH  076%=      5-min Rain = 0
KWA1 201057Z 17008KT 26/21 A3004 RMK A01 T02550208  RH  076%=      5-min Rain = 0
KWA1 201058Z 17007KT 26/21 A3004 RMK A01 T02550208  RH  075%=      5-min Rain = 0
KWA1 201059Z 17008KT 26/21 A3004 RMK A01 T02550209  RH  075%=      5-min Rain = 0
KWA1 201100Z 18006KT 26/21 A3004 RMK A01 T02550209  RH  076%=      5-min Rain = 0
KWA1 201101Z 18007KT 25/21 A3004 RMK A01 T02540208  RH  076%=      5-min Rain = 0
KWA1 201102Z 18008KT 25/21 A3004 RMK A01 T02540209  RH  076%=      5-min Rain = 0
KWA1 201103Z 18009KT 25/21 A3004 RMK A01 T02540209  RH  076%=      5-min Rain = 0
KWA1 201104Z 18007KT 26/21 A3004 RMK A01 T02550209  RH  076%=      5-min Rain = 0
KWA1 201105Z 18007KT 26/21 A3004 RMK A01 T02550209  RH  075%=      5-min Rain = 0
KWA1 201106Z 19007KT 26/21 A3004 RMK A01 T02550209  RH  076%=      5-min Rain = 0
KWA1 201107Z 19007KT 26/21 A3004 RMK A01 T02550209  RH  076%=      5-min Rain = 0
KWA1 201108Z 19007KT 25/21 A3004 RMK A01 T02540209  RH  076%=      5-min Rain = 0
KWA1 201109Z 19007KT 25/21 A3004 RMK A01 T02540210  RH  076%=      5-min Rain = 0
KWA1 201110Z 20007KT 25/21 A3004 RMK A01 T02540210  RH  077%=      5-min Rain = 0
KWA1 201111Z 20007KT 25/21 A3004 RMK A01 T02530210  RH  077%=      5-min Rain = 0
KWA1 201112Z 21006KT 25/21 A3004 RMK A01 T02530210  RH  077%=      5-min Rain = 0
KWA1 201113Z 21005KT 25/21 A3004 RMK A01 T02520209  RH  077%=      5-min Rain = 0
KWA1 201114Z 21005KT 25/21 A3004 RMK A01 T02510209  RH  077%=      5-min Rain = 0
KWA1 201115Z 21005KT 25/21 A3004 RMK A01 T02510209  RH  078%=      5-min Rain = 0
KWA1 201116Z 21004KT 25/21 A3004 RMK A01 T02510209  RH  078%=      5-min Rain = 0
KWA1 201117Z 22005KT 25/21 A3004 RMK A01 T02500209  RH  078%=      5-min Rain = 0
KWA1 201118Z 22006KT 25/21 A3004 RMK A01 T02500209  RH  078%=      5-min Rain = 0
KWA1 201119Z 22005KT 25/21 A3004 RMK A01 T02500209  RH  078%=      5-min Rain = 0
KWA1 201120Z 22004KT 25/21 A3004 RMK A01 T02510209  RH  078%=      5-min Rain = 0
KWA1 201121Z 24004KT 25/21 A3004 RMK A01 T02500209  RH  078%=      5-min Rain = 0
KWA1 201122Z 24004KT 25/21 A3005 RMK A01 T02490208  RH  078%=      5-min Rain = 0
KWA1 201123Z 24004KT 25/21 A3005 RMK A01 T02480207  RH  078%=      5-min Rain = 0
KWA1 201124Z 25004KT 25/21 A3005 RMK A01 T02480207  RH  078%=      5-min Rain = 0
KWA1 201125Z 24004KT 25/21 A3005 RMK A01 T02470207  RH  078%=      5-min Rain = 0
KWA1 201126Z 24004KT 25/21 A3005 RMK A01 T02470207  RH  079%=      5-min Rain = 0
KWA1 201127Z 24004KT 25/21 A3005 RMK A01 T02460207  RH  079%=      5-min Rain = 0
KWA1 201128Z 24004KT 25/21 A3005 RMK A01 T02460207  RH  079%=      5-min Rain = 0
KWA1 201129Z 23004KT 25/21 A3005 RMK A01 T02460207  RH  079%=      5-min Rain = 0
KWA1 201130Z 22004KT 25/21 A3005 RMK A01 T02460208  RH  079%=      5-min Rain = 0
KWA1 201131Z 22004KT 25/21 A3005 RMK A01 T02460208  RH  079%=      5-min Rain = 0
KWA1 201132Z 22004KT 25/21 A3005 RMK A01 T02460208  RH  080%=      5-min Rain = 0
KWA1 201133Z 22004KT 25/21 A3005 RMK A01 T02450208  RH  079%=      5-min Rain = 0
KWA1 201134Z 21004KT 25/21 A3005 RMK A01 T02450208  RH  080%=      5-min Rain = 0
KWA1 201135Z 22004KT 25/21 A3005 RMK A01 T02450208  RH  080%=      5-min Rain = 0
KWA1 201136Z 21004KT 25/21 A3005 RMK A01 T02450208  RH  080%=      5-min Rain = 0
KWA1 201137Z 22004KT 24/21 A3005 RMK A01 T02440208  RH  080%=      5-min Rain = 0
KWA1 201138Z 21004KT 24/21 A3005 RMK A01 T02440207  RH  080%=      5-min Rain = 0
KWA1 201139Z 21004KT 24/21 A3005 RMK A01 T02440208  RH  080%=      5-min Rain = 0
KWA1 201140Z 21003KT 24/21 A3005 RMK A01 T02430208  RH  081%=      5-min Rain = 0
KWA1 201141Z 21004KT 24/21 A3005 RMK A01 T02430208  RH  081%=      5-min Rain = 0
KWA1 201142Z 21003KT 24/21 A3005 RMK A01 T02430208  RH  081%=      5-min Rain = 0
KWA1 201143Z 21003KT 24/21 A3005 RMK A01 T02440208  RH  080%=      5-min Rain = 0
KWA1 201144Z 22004KT 24/21 A3005 RMK A01 T02440208  RH  080%=      5-min Rain = 0
KWA1 201145Z 23003KT 24/21 A3005 RMK A01 T02440207  RH  080%=      5-min Rain = 0
KWA1 201146Z 23003KT 24/21 A3005 RMK A01 T02440207  RH  080%=      5-min Rain = 0
KWA1 201147Z 23003KT 24/21 A3005 RMK A01 T02430207  RH  080%=      5-min Rain = 0
KWA1 201148Z 23003KT 24/21 A3005 RMK A01 T02420207  RH  081%=      5-min Rain = 0
KWA1 201149Z 22003KT 24/21 A3005 RMK A01 T02420207  RH  081%=      5-min Rain = 0
KWA1 201150Z 22003KT 24/21 A3005 RMK A01 T02410207  RH  081%=      5-min Rain = 0
KWA1 201151Z 22003KT 24/21 A3005 RMK A01 T02410207  RH  081%=      5-min Rain = 0
KWA1 201152Z 22003KT 24/21 A3005 RMK A01 T02410208  RH  081%=      5-min Rain = 0
KWA1 201153Z 23002KT 24/21 A3005 RMK A01 T02410207  RH  081%=      5-min Rain = 0
KWA1 201154Z 23002KT 24/21 A3005 RMK A01 T02410206  RH  081%=      5-min Rain = 0
KWA1 201155Z 23003KT 24/21 A3005 RMK A01 T02400205  RH  081%=      5-min Rain = 0
KWA1 201156Z 23003KT 24/21 A3005 RMK A01 T02400207  RH  082%=      5-min Rain = 0
KWA1 201157Z 24001KT 24/21 A3005 RMK A01 T02400207  RH  082%=      5-min Rain = 0
KWA1 201158Z 23001KT 24/21 A3005 RMK A01 T02400206  RH  081%=      5-min Rain = 0
KWA1 201159Z 22001KT 24/21 A3005 RMK A01 T02390206  RH  082%=      5-min Rain = 0
KWA1 201200Z 21001KT 24/21 A3005 RMK A01 T02390207  RH  082%=      5-min Rain = 0
KWA1 201201Z 21001KT 24/21 A3005 RMK A01 T02390207  RH  083%=      5-min Rain = 0
KWA1 201202Z 19001KT 24/21 A3005 RMK A01 T02390208  RH  083%=      5-min Rain = 0
KWA1 201203Z 19002KT 24/21 A3006 RMK A01 T02390210  RH  083%=      5-min Rain = 0
KWA1 201204Z 18002KT 24/21 A3006 RMK A01 T02390206  RH  082%=      5-min Rain = 0
KWA1 201205Z 19002KT 24/21 A3006 RMK A01 T02390206  RH  082%=      5-min Rain = 0
KWA1 201206Z 19002KT 24/21 A3006 RMK A01 T02380206  RH  082%=      5-min Rain = 0
KWA1 201207Z 18003KT 24/21 A3006 RMK A01 T02380208  RH  083%=      5-min Rain = 0
KWA1 201208Z 17003KT 24/21 A3006 RMK A01 T02380208  RH  083%=      5-min Rain = 0
KWA1 201209Z 17003KT 24/21 A3006 RMK A01 T02380208  RH  083%=      5-min Rain = 0
KWA1 201210Z 16003KT 24/21 A3006 RMK A01 T02380208  RH  083%=      5-min Rain = 0
KWA1 201211Z 16002KT 24/21 A3006 RMK A01 T02380207  RH  083%=      5-min Rain = 0
KWA1 201212Z 16003KT 24/21 A3006 RMK A01 T02380207  RH  083%=      5-min Rain = 0
KWA1 201213Z 16003KT 24/21 A3006 RMK A01 T02380208  RH  083%=      5-min Rain = 0
KWA1 201214Z 17005KT 24/21 A3006 RMK A01 T02380208  RH  083%=      5-min Rain = 0
KWA1 201215Z 17004KT 24/21 A3006 RMK A01 T02380208  RH  083%=      5-min Rain = 0
KWA1 201216Z 17004KT 24/21 A3006 RMK A01 T02380209  RH  084%=      5-min Rain = 0
KWA1 201217Z 18005KT 24/21 A3006 RMK A01 T02370209  RH  084%=      5-min Rain = 0
KWA1 201218Z 18004KT 24/21 A3006 RMK A01 T02370208  RH  084%=      5-min Rain = 0
KWA1 201219Z 18005KT 24/21 A3006 RMK A01 T02370208  RH  084%=      5-min Rain = 0
KWA1 201220Z 18005KT 24/21 A3006 RMK A01 T02370208  RH  084%=      5-min Rain = 0
KWA1 201221Z 17004KT 24/21 A3006 RMK A01 T02370209  RH  084%=      5-min Rain = 0
KWA1 201222Z 17004KT 24/21 A3006 RMK A01 T02370209  RH  084%=      5-min Rain = 0
KWA1 201223Z 17005KT 24/21 A3006 RMK A01 T02370209  RH  084%=      5-min Rain = 0
KWA1 201224Z 17004KT 24/21 A3006 RMK A01 T02370210  RH  085%=      5-min Rain = 0
KWA1 201225Z 17005KT 24/21 A3006 RMK A01 T02370210  RH  085%=      5-min Rain = 0
KWA1 201226Z 17004KT 24/21 A3006 RMK A01 T02370210  RH  085%=      5-min Rain = 0
KWA1 201227Z 17005KT 24/21 A3006 RMK A01 T02370210  RH  085%=      5-min Rain = 0
KWA1 201228Z 18005KT 24/21 A3006 RMK A01 T02370210  RH  085%=      5-min Rain = 0
KWA1 201229Z 19004KT 24/21 A3006 RMK A01 T02370210  RH  085%=      5-min Rain = 0
KWA1 201230Z 19004KT 24/21 A3006 RMK A01 T02380210  RH  084%=      5-min Rain = 0
KWA1 201231Z 19004KT 24/21 A3006 RMK A01 T02380210  RH  084%=      5-min Rain = 0
KWA1 201232Z 20004KT 24/21 A3006 RMK A01 T02390210  RH  084%=      5-min Rain = 0
KWA1 201233Z 20004KT 24/21 A3006 RMK A01 T02400211  RH  084%=      5-min Rain = 0
KWA1 201234Z 20004KT 24/21 A3006 RMK A01 T02400211  RH  084%=      5-min Rain = 0
KWA1 201235Z 20005KT 24/21 A3006 RMK A01 T02400211  RH  084%=      5-min Rain = 0
KWA1 201236Z 20005KT 24/21 A3006 RMK A01 T02400211  RH  084%=      5-min Rain = 0
KWA1 201237Z 20005KT 24/21 A3006 RMK A01 T02410212  RH  084%=      5-min Rain = 0
KWA1 201238Z 20005KT 24/21 A3006 RMK A01 T02420212  RH  084%=      5-min Rain = 0
KWA1 201239Z 20005KT 24/21 A3006 RMK A01 T02430213  RH  083%=      5-min Rain = 0
KWA1 201240Z 20005KT 24/21 A3006 RMK A01 T02440213  RH  083%=      5-min Rain = 0
KWA1 201241Z 21005KT 24/21 A3006 RMK A01 T02440213  RH  083%=      5-min Rain = 0
KWA1 201242Z 20004KT 25/21 A3006 RMK A01 T02450213  RH  083%=      5-min Rain = 0
KWA1 201243Z 20005KT 25/21 A3006 RMK A01 T02450213  RH  083%=      5-min Rain = 0
KWA1 201244Z 20004KT 25/21 A3006 RMK A01 T02460214  RH  082%=      5-min Rain = 0
KWA1 201245Z 20004KT 25/21 A3006 RMK A01 T02460214  RH  082%=      5-min Rain = 0
KWA1 201246Z 20004KT 25/21 A3006 RMK A01 T02470214  RH  082%=      5-min Rain = 0
KWA1 201247Z 20004KT 25/21 A3006 RMK A01 T02470214  RH  082%=      5-min Rain = 0
KWA1 201248Z 21003KT 25/21 A3006 RMK A01 T02470214  RH  082%=      5-min Rain = 0
KWA1 201249Z 21003KT 25/21 A3006 RMK A01 T02470214  RH  082%=      5-min Rain = 0
KWA1 201250Z 20003KT 25/22 A3006 RMK A01 T02470215  RH  082%=      5-min Rain = 0
KWA1 201251Z 21003KT 25/22 A3006 RMK A01 T02470215  RH  082%=      5-min Rain = 0
KWA1 201252Z 21003KT 25/22 A3006 RMK A01 T02480215  RH  082%=      5-min Rain = 0
KWA1 201253Z 20004KT 25/22 A3007 RMK A01 T02480215  RH  082%=      5-min Rain = 0
KWA1 201254Z 21003KT 25/22 A3007 RMK A01 T02480215  RH  082%=      5-min Rain = 0
KWA1 201255Z 21003KT 25/22 A3007 RMK A01 T02490216  RH  082%=      5-min Rain = 0
KWA1 201256Z 21003KT 25/22 A3007 RMK A01 T02490216  RH  082%=      5-min Rain = 0
KWA1 201257Z 20005KT 25/22 A3007 RMK A01 T02500216  RH  082%=      5-min Rain = 0
KWA1 201258Z 21004KT 25/22 A3007 RMK A01 T02510216  RH  081%=      5-min Rain = 0
KWA1 201259Z 21003KT 25/22 A3007 RMK A01 T02520216  RH  081%=      5-min Rain = 0
KWA1 201300Z 21003KT 25/22 A3006 RMK A01 T02520217  RH  081%=      5-min Rain = 0
KWA1 201301Z 21004KT 25/22 A3006 RMK A01 T02530217  RH  081%=      5-min Rain = 0
KWA1 201302Z 21006KT 25/22 A3006 RMK A01 T02530217  RH  080%=      5-min Rain = 0
KWA1 201303Z 21005KT 25/22 A3006 RMK A01 T02540217  RH  080%=      5-min Rain = 0
KWA1 201304Z 21005KT 25/22 A3006 RMK A01 T02540217  RH  080%=      5-min Rain = 0
KWA1 201305Z 20006KT 26/22 A3006 RMK A01 T02550217  RH  080%=      5-min Rain = 0
KWA1 201306Z 21005KT 26/22 A3006 RMK A01 T02550218  RH  080%=      5-min Rain = 0
KWA1 201307Z 21006KT 26/22 A3006 RMK A01 T02560217  RH  079%=      5-min Rain = 0
KWA1 201308Z 21006KT 26/22 A3006 RMK A01 T02560218  RH  079%=      5-min Rain = 0
KWA1 201309Z 21005KT 26/22 A3006 RMK A01 T02570218  RH  079%=      5-min Rain = 0
KWA1 201310Z 21006KT 26/22 A3006 RMK A01 T02570218  RH  079%=      5-min Rain = 0
KWA1 201311Z 22007KT 26/22 A3006 RMK A01 T02570218  RH  079%=      5-min Rain = 0
KWA1 201312Z 22007KT 26/22 A3006 RMK A01 T02580218  RH  079%=      5-min Rain = 0
KWA1 201313Z 21006KT 26/22 A3006 RMK A01 T02580218  RH  079%=      5-min Rain = 0
KWA1 201314Z 21005KT 26/22 A3006 RMK A01 T02580218  RH  079%=      5-min Rain = 0
KWA1 201315Z 21006KT 26/22 A3007 RMK A01 T02590219  RH  079%=      5-min Rain = 0
KWA1 201316Z 22004KT 26/22 A3007 RMK A01 T02590219  RH  079%=      5-min Rain = 0
KWA1 201317Z 22005KT 26/22 A3007 RMK A01 T02590219  RH  079%=      5-min Rain = 0
KWA1 201318Z 21004KT 26/22 A3007 RMK A01 T02590220  RH  079%=      5-min Rain = 0
KWA1 201319Z 21004KT 26/22 A3007 RMK A01 T02600220  RH  079%=      5-min Rain = 0
KWA1 201320Z 21004KT 26/22 A3007 RMK A01 T02600220  RH  078%=      5-min Rain = 0
KWA1 201321Z 22004KT 26/22 A3007 RMK A01 T02610220  RH  078%=      5-min Rain = 0
KWA1 201322Z 21002KT 26/22 A3007 RMK A01 T02610221  RH  078%=      5-min Rain = 0
KWA1 201323Z 21004KT 26/22 A3007 RMK A01 T02620222  RH  078%=      5-min Rain = 0
KWA1 201324Z 21007KT 26/22 A3007 RMK A01 T02630220  RH  077%=      5-min Rain = 0
KWA1 201325Z 21006KT 26/22 A3007 RMK A01 T02630219  RH  077%=      5-min Rain = 0
KWA1 201326Z 22004KT 26/22 A3007 RMK A01 T02630220  RH  077%=      5-min Rain = 0
KWA1 201327Z 20003KT 26/22 A3007 RMK A01 T02640221  RH  077%=      5-min Rain = 0
KWA1 201328Z 20004KT 27/22 A3007 RMK A01 T02650220  RH  076%=      5-min Rain = 0
KWA1 201329Z 21003KT 27/22 A3007 RMK A01 T02650221  RH  077%=      5-min Rain = 0
KWA1 201330Z 21003KT 27/22 A3007 RMK A01 T02660222  RH  077%=      5-min Rain = 0
KWA1 201331Z 21003KT 27/22 A3007 RMK A01 T02670222  RH  076%=      5-min Rain = 0
KWA1 201332Z 21003KT 27/22 A3007 RMK A01 T02670221  RH  076%=      5-min Rain = 0
KWA1 201333Z 21002KT 27/22 A3007 RMK A01 T02670222  RH  076%=      5-min Rain = 0
KWA1 201334Z 22003KT 27/22 A3007 RMK A01 T02680223  RH  076%=      5-min Rain = 0
KWA1 201335Z 21003KT 27/22 A3007 RMK A01 T02680222  RH  075%=      5-min Rain = 0
KWA1 201336Z 19005KT 27/22 A3007 RMK A01 T02690222  RH  075%=      5-min Rain = 0
KWA1 201337Z 20006KT 27/22 A3007 RMK A01 T02690220  RH  074%=      5-min Rain = 0
KWA1 201338Z 20006KT 27/22 A3008 RMK A01 T02690220  RH  074%=      5-min Rain = 0
KWA1 201339Z 21005KT 27/22 A3008 RMK A01 T02690220  RH  075%=      5-min Rain = 0
KWA1 201340Z 20004KT 27/22 A3008 RMK A01 T02690221  RH  075%=      5-min Rain = 0
KWA1 201341Z 20005KT 27/22 A3008 RMK A01 T02700222  RH  075%=      5-min Rain = 0
KWA1 201342Z 22003KT 27/22 A3008 RMK A01 T02710222  RH  075%=      5-min Rain = 0
KWA1 201343Z 21001KT 27/22 A3008 RMK A01 T02710224  RH  075%=      5-min Rain = 0
KWA1 201344Z 21003KT 27/22 A3008 RMK A01 T02710222  RH  074%=      5-min Rain = 0
KWA1 201345Z 22003KT 27/22 A3008 RMK A01 T02720222  RH  074%=      5-min Rain = 0
KWA1 201346Z 18003KT 27/22 A3008 RMK A01 T02720222  RH  074%=      5-min Rain = 0
KWA1 201347Z 21004KT 27/22 A3008 RMK A01 T02730222  RH  074%=      5-min Rain = 0
KWA1 201348Z 21006KT 27/22 A3008 RMK A01 T02730220  RH  073%=      5-min Rain = 0
KWA1 201349Z 21005KT 27/22 A3008 RMK A01 T02730221  RH  073%=      5-min Rain = 0
KWA1 201350Z 21005KT 27/22 A3008 RMK A01 T02740222  RH  073%=      5-min Rain = 0
KWA1 201351Z 18004KT 27/22 A3008 RMK A01 T02740221  RH  073%=      5-min Rain = 0
KWA1 201352Z 19004KT 28/22 A3008 RMK A01 T02750222  RH  073%=      5-min Rain = 0
KWA1 201353Z 20004KT 28/22 A3008 RMK A01 T02750221  RH  072%=      5-min Rain = 0
KWA1 201354Z 20005KT 28/22 A3008 RMK A01 T02750221  RH  072%=      5-min Rain = 0
KWA1 201355Z 20006KT 28/22 A3008 RMK A01 T02760222  RH  072%=      5-min Rain = 0
KWA1 201356Z 19006KT 28/22 A3008 RMK A01 T02760218  RH  071%=      5-min Rain = 0
KWA1 201357Z 18004KT 28/22 A3008 RMK A01 T02760221  RH  072%=      5-min Rain = 0
KWA1 201358Z 17008KT 28/22 A3008 RMK A01 T02780221  RH  071%=      5-min Rain = 0
KWA1 201359Z 19007KT 28/22 A3008 RMK A01 T02780219  RH  070%=      5-min Rain = 0
KWA1 201400Z 18007KT 28/22 A3008 RMK A01 T02790219  RH  070%=      5-min Rain = 0
KWA1 201401Z 19008KT 28/22 A3008 RMK A01 T02790218  RH  069%=      5-min Rain = 0
KWA1 201402Z 19008KT 28/22 A3008 RMK A01 T02790218  RH  069%=      5-min Rain = 0
KWA1 201403Z 19007KT 28/22 A3008 RMK A01 T02800219  RH  070%=      5-min Rain = 0
KWA1 201404Z 21007KT 28/22 A3008 RMK A01 T02790218  RH  069%=      5-min Rain = 0
KWA1 201405Z 18006KT 28/22 A3008 RMK A01 T02790221  RH  071%=      5-min Rain = 0
KWA1 201406Z 18006KT 28/22 A3008 RMK A01 T02800219  RH  069%=      5-min Rain = 0
KWA1 201407Z 19007KT 28/22 A3008 RMK A01 T02810218  RH  069%=      5-min Rain = 0
KWA1 201408Z 18008KT 28/22 A3008 RMK A01 T02810218  RH  069%=      5-min Rain = 0
KWA1 201409Z 20007KT 28/22 A3008 RMK A01 T02810218  RH  069%=      5-min Rain = 0
KWA1 201410Z 18008KT 28/22 A3008 RMK A01 T02820219  RH  069%=      5-min Rain = 0
KWA1 201411Z 19008KT 28/22 A3008 RMK A01 T02820217  RH  068%=      5-min Rain = 0
KWA1 201412Z 19009KT 28/22 A3008 RMK A01 T02820218  RH  068%=      5-min Rain = 0
KWA1 201413Z 18009KT 28/22 A3008 RMK A01 T02820218  RH  068%=      5-min Rain = 0
KWA1 201414Z 19008KT 28/22 A3008 RMK A01 T02830219  RH  068%=      5-min Rain = 0
KWA1 201415Z 19008KT 28/22 A3008 RMK A01 T02840218  RH  067%=      5-min Rain = 0
KWA1 201416Z 20008KT 28/22 A3008 RMK A01 T02840217  RH  067%=      5-min Rain = 0
KWA1 201417Z 19007KT 28/22 A3008 RMK A01 T02840220  RH  068%=      5-min Rain = 0
KWA1 201418Z 19008KT 28/22 A3008 RMK A01 T02840217  RH  067%=      5-min Rain = 0
KWA1 201419Z 20009KT 29/22 A3008 RMK A01 T02850217  RH  066%=      5-min Rain = 0
KWA1 201420Z 20010KT 29/22 A3008 RMK A01 T02850218  RH  067%=      5-min Rain = 0
KWA1 201421Z 20008KT 28/22 A3008 RMK A01 T02840217  RH  067%=      5-min Rain = 0
KWA1 201422Z 21006KT 28/22 A3008 RMK A01 T02840220  RH  068%=      5-min Rain = 0
KWA1 201423Z 20009KT 28/22 A3008 RMK A01 T02840219  RH  068%=      5-min Rain = 0
KWA1 201424Z 21008KT 28/22 A3008 RMK A01 T02840218  RH  067%=      5-min Rain = 0
KWA1 201425Z 20006KT 29/22 A3008 RMK A01 T02850219  RH  068%=      5-min Rain = 0
KWA1 201426Z 21007KT 28/22 A3008 RMK A01 T02840222  RH  069%=      5-min Rain = 0
KWA1 201427Z 20006KT 29/22 A3008 RMK A01 T02860218  RH  067%=      5-min Rain = 0
KWA1 201428Z 20008KT 29/22 A3008 RMK A01 T02860218  RH  067%=      5-min Rain = 0
KWA1 201429Z 20009KT 29/22 A3008 RMK A01 T02860218  RH  067%=      5-min Rain = 0
KWA1 201430Z 20009KT 29/22 A3008 RMK A01 T02870218  RH  066%=      5-min Rain = 0
KWA1 201431Z 20007KT 29/22 A3008 RMK A01 T02870218  RH  066%=      5-min Rain = 0
KWA1 201432Z 20006KT 29/22 A3008 RMK A01 T02870218  RH  066%=      5-min Rain = 0
KWA1 201433Z 20007KT 29/22 A3008 RMK A01 T02880219  RH  066%=      5-min Rain = 0
KWA1 201434Z 18007KT 29/22 A3008 RMK A01 T02880220  RH  066%=      5-min Rain = 0
KWA1 201435Z 19007KT 29/22 A3008 RMK A01 T02890216  RH  065%=      5-min Rain = 0
KWA1 201436Z 20006KT 29/22 A3008 RMK A01 T02900218  RH  065%=      5-min Rain = 0
KWA1 201437Z 22007KT 29/22 A3008 RMK A01 T02910222  RH  067%=      5-min Rain = 0
KWA1 201438Z 21005KT 29/22 A3008 RMK A01 T02910220  RH  066%=      5-min Rain = 0
KWA1 201439Z 20007KT 29/22 A3008 RMK A01 T02910220  RH  065%=      5-min Rain = 0
KWA1 201440Z 19007KT 29/22 A3008 RMK A01 T02910219  RH  065%=      5-min Rain = 0
KWA1 201441Z 18008KT 29/22 A3008 RMK A01 T02910216  RH  064%=      5-min Rain = 0
KWA1 201442Z 18008KT 29/22 A3008 RMK A01 T02910217  RH  064%=      5-min Rain = 0
KWA1 201443Z 18008KT 29/22 A3008 RMK A01 T02920215  RH  063%=      5-min Rain = 0
KWA1 201444Z 20007KT 29/22 A3008 RMK A01 T02920216  RH  064%=      5-min Rain = 0
KWA1 201445Z 19007KT 29/22 A3008 RMK A01 T02920222  RH  066%=      5-min Rain = 0
KWA1 201446Z 17007KT 29/22 A3008 RMK A01 T02940218  RH  064%=      5-min Rain = 0
KWA1 201447Z 17007KT 30/22 A3008 RMK A01 T02960218  RH  063%=      5-min Rain = 0
KWA1 201448Z 18006KT 30/22 A3008 RMK A01 T02960215  RH  062%=      5-min Rain = 0
KWA1 201449Z 20006KT 30/22 A3008 RMK A01 T02960215  RH  062%=      5-min Rain = 0
KWA1 201450Z 21007KT 30/22 A3008 RMK A01 T02950218  RH  063%=      5-min Rain = 0
KWA1 201451Z 21007KT 30/22 A3008 RMK A01 T02950217  RH  063%=      5-min Rain = 0
KWA1 201452Z 20007KT 29/22 A3008 RMK A01 T02940217  RH  063%=      5-min Rain = 0
KWA1 201453Z 18006KT 29/22 A3009 RMK A01 T02940216  RH  063%=      5-min Rain = 0
KWA1 201454Z 19005KT 30/22 A3009 RMK A01 T02950219  RH  064%=      5-min Rain = 0
KWA1 201455Z 20007KT 30/22 A3009 RMK A01 T02970219  RH  063%=      5-min Rain = 0
KWA1 201456Z 20006KT 30/22 A3009 RMK A01 T02980219  RH  063%=      5-min Rain = 0
KWA1 201457Z 20007KT 30/22 A3009 RMK A01 T02980217  RH  062%=      5-min Rain = 0
KWA1 201458Z 22006KT 30/22 A3009 RMK A01 T02960218  RH  063%=      5-min Rain = 0
KWA1 201459Z 23005KT 30/22 A3009 RMK A01 T02960217  RH  063%=      5-min Rain = 0
KWA1 201500Z 22007KT 30/22 A3009 RMK A01 T02960219  RH  063%=      5-min Rain = 0
KWA1 201501Z 22006KT 30/22 A3009 RMK A01 T02960221  RH  064%=      5-min Rain = 0
KWA1 201502Z 22006KT 30/22 A3009 RMK A01 T02970219  RH  063%=      5-min Rain = 0
KWA1 201503Z 22006KT 30/22 A3009 RMK A01 T02970219  RH  063%=      5-min Rain = 0
KWA1 201504Z 22005KT 30/22 A3009 RMK A01 T02980221  RH  063%=      5-min Rain = 0
KWA1 201505Z 22008KT 30/22 A3009 RMK A01 T02990219  RH  062%=      5-min Rain = 0
KWA1 201506Z 22008KT 30/22 A3009 RMK A01 T02990217  RH  061%=      5-min Rain = 0
KWA1 201507Z 20006KT 30/22 A3009 RMK A01 T02980217  RH  062%=      5-min Rain = 0
KWA1 201508Z 21006KT 30/22 A3009 RMK A01 T02980218  RH  062%=      5-min Rain = 0
KWA1 201509Z 21009KT 30/22 A3009 RMK A01 T02990216  RH  061%=      5-min Rain = 0
KWA1 201510Z 21008KT 30/22 A3009 RMK A01 T02990218  RH  062%=      5-min Rain = 0
KWA1 201511Z 20009KT 30/22 A3009 RMK A01 T02990217  RH  061%=      5-min Rain = 0
KWA1 201512Z 20007KT 30/22 A3009 RMK A01 T02980215  RH  061%=      5-min Rain = 0
KWA1 201513Z 20007KT 30/22 A3009 RMK A01 T02980215  RH  061%=      5-min Rain = 0
KWA1 201514Z 19005KT 30/22 A3009 RMK A01 T02980215  RH  061%=      5-min Rain = 0
KWA1 201515Z 17006KT 30/22 A3009 RMK A01 T03000216  RH  061%=      5-min Rain = 0
KWA1 201516Z 18007KT 30/22 A3009 RMK A01 T03030218  RH  060%=      5-min Rain = 0
KWA1 201517Z 18007KT 31/22 A3009 RMK A01 T03050220  RH  060%=      5-min Rain = 0
KWA1 201518Z 18008KT 31/21 A3009 RMK A01 T03060213  RH  058%=      5-min Rain = 0
KWA1 201519Z 18006KT 31/22 A3009 RMK A01 T03060217  RH  059%=      5-min Rain = 0
KWA1 201520Z 20007KT 31/22 A3009 RMK A01 T03070217  RH  059%=      5-min Rain = 0
KWA1 201521Z 21007KT 31/22 A3009 RMK A01 T03060220  RH  060%=      5-min Rain = 0
KWA1 201522Z 21005KT 30/22 A3009 RMK A01 T03040218  RH  060%=      5-min Rain = 0
KWA1 201523Z 19007KT 30/22 A3009 RMK A01 T03040220  RH  061%=      5-min Rain = 0
KWA1 201524Z 19006KT 31/22 A3009 RMK A01 T03060216  RH  059%=      5-min Rain = 0
KWA1 201525Z 19008KT 31/22 A3009 RMK A01 T03060216  RH  058%=      5-min Rain = 0
KWA1 201526Z 19007KT 31/21 A3009 RMK A01 T03060213  RH  058%=      5-min Rain = 0
KWA1 201527Z 19008KT 31/22 A3009 RMK A01 T03060215  RH  058%=      5-min Rain = 0
KWA1 201528Z 18007KT 31/22 A3009 RMK A01 T03070217  RH  059%=      5-min Rain = 0
KWA1 201529Z 18006KT 31/22 A3009 RMK A01 T03090215  RH  057%=      5-min Rain = 0
KWA1 201530Z 16005KT 31/21 A3009 RMK A01 T03090214  RH  057%=      5-min Rain = 0
KWA1 201531Z 15006KT 31/22 A3009 RMK A01 T03100218  RH  058%=      5-min Rain = 0
KWA1 201532Z 16008KT 31/22 A3009 RMK A01 T03110217  RH  057%=      5-min Rain = 0
KWA1 201533Z 21007KT 31/22 A3009 RMK A01 T03120221  RH  058%=      5-min Rain = 0
KWA1 201534Z 18008KT 31/22 A3009 RMK A01 T03120222  RH  059%=      5-min Rain = 0
KWA1 201535Z 16009KT 31/22 A3009 RMK A01 T03140216  RH  056%=      5-min Rain = 0
KWA1 201536Z 16007KT 31/21 A3009 RMK A01 T03140214  RH  056%=      5-min Rain = 0
KWA1 201537Z 17007KT 31/21 A3009 RMK A01 T03120213  RH  056%=      5-min Rain = 0
KWA1 201538Z 16005KT 31/22 A3009 RMK A01 T03120216  RH  057%=      5-min Rain = 0
KWA1 201539Z 18007KT 31/22 A3009 RMK A01 T03120216  RH  057%=      5-min Rain = 0
KWA1 201540Z 18007KT 31/21 A3009 RMK A01 T03130212  RH  055%=      5-min Rain = 0
KWA1 201541Z 17006KT 31/21 A3009 RMK A01 T03140209  RH  054%=      5-min Rain = 0
KWA1 201542Z 19007KT 31/21 A3009 RMK A01 T03140213  RH  055%=      5-min Rain = 0
KWA1 201543Z 20008KT 31/21 A3009 RMK A01 T03140214  RH  056%=      5-min Rain = 0
KWA1 201544Z 20009KT 31/21 A3009 RMK A01 T03130209  RH  054%=      5-min Rain = 0
KWA1 201545Z 20007KT 31/21 A3009 RMK A01 T03110211  RH  056%=      5-min Rain = 0
KWA1 201546Z 18007KT 31/21 A3009 RMK A01 T03100213  RH  057%=      5-min Rain = 0
KWA1 201547Z 17010KT 31/21 A3009 RMK A01 T03110213  RH  056%=      5-min Rain = 0
KWA1 201548Z 16008KT 31/21 A3009 RMK A01 T03130210  RH  054%=      5-min Rain = 0
KWA1 201549Z 18007KT 31/21 A3009 RMK A01 T03140209  RH  054%=      5-min Rain = 0
KWA1 201550Z 16007KT 31/21 A3009 RMK A01 T03130208  RH  054%=      5-min Rain = 0
KWA1 201551Z 14006KT 31/21 A3009 RMK A01 T03130210  RH  054%=      5-min Rain = 0
KWA1 201552Z 13007KT 31/21 A3009 RMK A01 T03140211  RH  055%=      5-min Rain = 0
KWA1 201553Z 13005KT 32/21 A3009 RMK A01 T03160208  RH  053%=      5-min Rain = 0
KWA1 201554Z 13006KT 32/21 A3009 RMK A01 T03180208  RH  052%=      5-min Rain = 0
KWA1 201555Z 16008KT 32/22 A3009 RMK A01 T03190215  RH  054%=      5-min Rain = 0
KWA1 201556Z 18009KT 32/21 A3009 RMK A01 T03200211  RH  052%=      5-min Rain = 0
KWA1 201557Z 18007KT 32/21 A3009 RMK A01 T03200210  RH  052%=      5-min Rain = 0
KWA1 201558Z 19009KT 32/21 A3009 RMK A01 T03190211  RH  053%=      5-min Rain = 0
KWA1 201559Z 19008KT 32/21 A3009 RMK A01 T03180212  RH  053%=      5-min Rain = 0
KWA1 201600Z 19007KT 32/21 A3009 RMK A01 T03160214  RH  055%=      5-min Rain = 0
KWA1 201601Z 19006KT 32/21 A3009 RMK A01 T03160211  RH  054%=      5-min Rain = 0
KWA1 201602Z 20005KT 32/21 A3009 RMK A01 T03170209  RH  053%=      5-min Rain = 0
KWA1 201603Z 18004KT 32/21 A3009 RMK A01 T03170213  RH  054%=      5-min Rain = 0
KWA1 201604Z 17008KT 32/21 A3009 RMK A01 T03180214  RH  054%=      5-min Rain = 0
KWA1 201605Z 19007KT 32/21 A3009 RMK A01 T03190211  RH  053%=      5-min Rain = 0
KWA1 201606Z 19007KT 32/21 A3009 RMK A01 T03190212  RH  053%=      5-min Rain = 0
KWA1 201607Z 17006KT 32/21 A3009 RMK A01 T03190209  RH  052%=      5-min Rain = 0
KWA1 201608Z 17005KT 32/21 A3009 RMK A01 T03180207  RH  052%=      5-min Rain = 0
KWA1 201609Z 19005KT 32/21 A3009 RMK A01 T03180208  RH  052%=      5-min Rain = 0
KWA1 201610Z 18006KT 32/21 A3009 RMK A01 T03180208  RH  052%=      5-min Rain = 0
KWA1 201611Z 18007KT 32/21 A3009 RMK A01 T03180208  RH  052%=      5-min Rain = 0
KWA1 201612Z 16007KT 32/21 A3009 RMK A01 T03190207  RH  052%=      5-min Rain = 0
KWA1 201613Z 15004KT 32/21 A3009 RMK A01 T03180207  RH  052%=      5-min Rain = 0
KWA1 201614Z 17007KT 32/21 A3009 RMK A01 T03180212  RH  053%=      5-min Rain = 0
KWA1 201615Z 14009KT 32/21 A3009 RMK A01 T03200210  RH  052%=      5-min Rain = 0
KWA1 201616Z 14009KT 32/21 A3009 RMK A01 T03210208  RH  051%=      5-min Rain = 0
KWA1 201617Z 18010KT 32/21 A3009 RMK A01 T03210211  RH  052%=      5-min Rain = 0
KWA1 201618Z 18009KT 32/21 A3009 RMK A01 T03220209  RH  051%=      5-min Rain = 0
KWA1 201619Z 18008KT 32/21 A3009 RMK A01 T03210211  RH  052%=      5-min Rain = 0
KWA1 201620Z 17007KT 32/21 A3009 RMK A01 T03220212  RH  052%=      5-min Rain = 0
KWA1 201621Z 17008KT 32/21 A3009 RMK A01 T03220213  RH  053%=      5-min Rain = 0
KWA1 201622Z 16006KT 32/21 A3009 RMK A01 T03220210  RH  052%=      5-min Rain = 0
KWA1 201623Z 14003KT 32/21 A3009 RMK A01 T03220211  RH  052%=      5-min Rain = 0
KWA1 201624Z 13004KT 32/21 A3009 RMK A01 T03240208  RH  050%=      5-min Rain = 0
KWA1 201625Z 15005KT 33/21 A3009 RMK A01 T03250208  RH  050%=      5-min Rain = 0
KWA1 201626Z 15007G12KT 33/21 A3009 RMK A01 T03260214  RH  051%=      5-min Rain = 0
KWA1 201627Z 17013KT 33/21 A3009 RMK A01 T03280213  RH  051%=      5-min Rain = 0
KWA1 201628Z 16011KT 33/21 A3009 RMK A01 T03270210  RH  050%=      5-min Rain = 0
KWA1 201629Z 17009KT 32/21 A3009 RMK A01 T03240209  RH  051%=      5-min Rain = 0
KWA1 201630Z 18009KT 32/21 A3009 RMK A01 T03230209  RH  051%=      5-min Rain = 0
KWA1 201631Z 18006KT 32/21 A3009 RMK A01 T03240206  RH  050%=      5-min Rain = 0
KWA1 201632Z 17005KT 32/21 A3009 RMK A01 T03230206  RH  050%=      5-min Rain = 0
KWA1 201633Z 16007KT 32/21 A3009 RMK A01 T03230213  RH  052%=      5-min Rain = 0
KWA1 201634Z 15007KT 33/21 A3009 RMK A01 T03260211  RH  051%=      5-min Rain = 0
KWA1 201635Z 15004KT 33/21 A3009 RMK A01 T03260208  RH  050%=      5-min Rain = 0
KWA1 201636Z 16006KT 33/21 A3009 RMK A01 T03250211  RH  051%=      5-min Rain = 0
KWA1 201637Z 17011KT 33/21 A3009 RMK A01 T03260212  RH  051%=      5-min Rain = 0
KWA1 201638Z 16010KT 33/21 A3009 RMK A01 T03270210  RH  050%=      5-min Rain = 0
KWA1 201639Z 15008KT 33/21 A3009 RMK A01 T03260212  RH  051%=      5-min Rain = 0
KWA1 201640Z 17005KT 33/21 A3009 RMK A01 T03270211  RH  050%=      5-min Rain = 0
KWA1 201641Z 17005KT 33/21 A3009 RMK A01 T03280206  RH  049%=      5-min Rain = 0
KWA1 201642Z 17004KT 33/21 A3009 RMK A01 T03280207  RH  049%=      5-min Rain = 0
KWA1 201643Z 13006KT 33/21 A3009 RMK A01 T03270208  RH  050%=      5-min Rain = 0
KWA1 201644Z 13006KT 33/21 A3009 RMK A01 T03280206  RH  049%=      5-min Rain = 0
KWA1 201645Z 14009KT 33/21 A3009 RMK A01 T03280207  RH  049%=      5-min Rain = 0
KWA1 201646Z 16007KT 33/21 A3009 RMK A01 T03280209  RH  050%=      5-min Rain = 0
KWA1 201647Z 18005KT 33/21 A3009 RMK A01 T03280205  RH  048%=      5-min Rain = 0
KWA1 201648Z 14005KT 33/21 A3009 RMK A01 T03260206  RH  049%=      5-min Rain = 0
KWA1 201649Z 15007KT 33/21 A3009 RMK A01 T03270205  RH  049%=      5-min Rain = 0
KWA1 201650Z 15008KT 33/21 A3009 RMK A01 T03280207  RH  049%=      5-min Rain = 0
KWA1 201651Z 14010KT 33/21 A3009 RMK A01 T03290208  RH  049%=      5-min Rain = 0
KWA1 201652Z 15008KT 33/21 A3009 RMK A01 T03290206  RH  048%=      5-min Rain = 0
KWA1 201653Z 15007KT 33/21 A3009 RMK A01 T03290210  RH  050%=      5-min Rain = 0
KWA1 201654Z 13008KT 33/21 A3009 RMK A01 T03290208  RH  049%=      5-min Rain = 0
KWA1 201655Z 15009KT 33/21 A3009 RMK A01 T03280208  RH  049%=      5-min Rain = 0
KWA1 201656Z 13010KT 33/21 A3009 RMK A01 T03260207  RH  049%=      5-min Rain = 0
KWA1 201657Z 13010KT 33/21 A3009 RMK A01 T03250205  RH  049%=      5-min Rain = 0
KWA1 201658Z 14012KT 33/21 A3009 RMK A01 T03270209  RH  050%=      5-min Rain = 0
KWA1 201659Z 14011KT 33/21 A3009 RMK A01 T03320211  RH  049%=      5-min Rain = 0
KWA1 201700Z 15011KT 33/21 A3009 RMK A01 T03320213  RH  050%=      5-min Rain = 0
KWA1 201701Z 15010KT 33/21 A3009 RMK A01 T03290207  RH  049%=      5-min Rain = 0
KWA1 201702Z 14010KT 33/20 A3009 RMK A01 T03250204  RH  049%=      5-min Rain = 0
KWA1 201703Z 13010KT 32/20 A3009 RMK A01 T03230198  RH  048%=      5-min Rain = 0
KWA1 201704Z 14010KT 32/20 A3009 RMK A01 T03230201  RH  048%=      5-min Rain = 0
KWA1 201705Z 13006KT 33/20 A3009 RMK A01 T03270201  RH  048%=      5-min Rain = 0
KWA1 201706Z 12009KT 33/20 A3009 RMK A01 T03300204  RH  048%=      5-min Rain = 0
KWA1 201707Z 11009KT 34/21 A3009 RMK A01 T03350207  RH  047%=      5-min Rain = 0
KWA1 201708Z 11009KT 33/20 A3009 RMK A01 T03340203  RH  046%=      5-min Rain = 0
KWA1 201709Z 10009KT 33/21 A3009 RMK A01 T03300205  RH  048%=      5-min Rain = 0
KWA1 201710Z 10007KT 33/20 A3009 RMK A01 T03300203  RH  047%=      5-min Rain = 0
KWA1 201711Z 11008KT 33/21 A3009 RMK A01 T03320205  RH  047%=      5-min Rain = 0
KWA1 201712Z 14007KT 34/21 A3008 RMK A01 T03350205  RH  047%=      5-min Rain = 0
KWA1 201713Z 15010KT 34/21 A3009 RMK A01 T03350213  RH  049%=      5-min Rain = 0
KWA1 201714Z 16008KT 34/21 A3009 RMK A01 T03360210  RH  048%=      5-min Rain = 0
KWA1 201715Z 17008KT 33/21 A3009 RMK A01 T03330213  RH  049%=      5-min Rain = 0
KWA1 201716Z 16010KT 33/21 A3009 RMK A01 T03310208  RH  048%=      5-min Rain = 0
KWA1 201717Z 17010KT 33/21 A3008 RMK A01 T03270205  RH  049%=      5-min Rain = 0
KWA1 201718Z 16010KT 33/21 A3008 RMK A01 T03270205  RH  049%=      5-min Rain = 0
KWA1 201719Z 15008KT 33/20 A3008 RMK A01 T03280202  RH  048%=      5-min Rain = 0
KWA1 201720Z 16006KT 33/21 A3008 RMK A01 T03310208  RH  049%=      5-min Rain = 0
KWA1 201721Z 15007KT 33/21 A3008 RMK A01 T03330207  RH  048%=      5-min Rain = 0
KWA1 201722Z 16008KT 33/21 A3008 RMK A01 T03340206  RH  047%=      5-min Rain = 0
KWA1 201723Z 12004KT 33/20 A3008 RMK A01 T03330200  RH  046%=      5-min Rain = 0
KWA1 201724Z 17004KT 33/20 A3008 RMK A01 T03330202  RH  046%=      5-min Rain = 0
KWA1 201725Z 17004KT 33/20 A3008 RMK A01 T03320202  RH  046%=      5-min Rain = 0
KWA1 201726Z 16007KT 33/20 A3008 RMK A01 T03290204  RH  048%=      5-min Rain = 0
KWA1 201727Z 16007KT 33/21 A3008 RMK A01 T03270205  RH  049%=      5-min Rain = 0
KWA1 201728Z 17005KT 33/20 A3008 RMK A01 T03250200  RH  048%=      5-min Rain = 0
KWA1 201729Z 16004KT 33/20 A3008 RMK A01 T03250202  RH  048%=      5-min Rain = 0
KWA1 201730Z 15005KT 33/21 A3008 RMK A01 T03280207  RH  049%=      5-min Rain = 0
KWA1 201731Z 15008KT 33/21 A3008 RMK A01 T03340207  RH  047%=      5-min Rain = 0
KWA1 201732Z 15010KT 34/21 A3008 RMK A01 T03370208  RH  047%=      5-min Rain = 0
KWA1 201733Z 15007KT 34/20 A3008 RMK A01 T03370204  RH  046%=      5-min Rain = 0
KWA1 201734Z 12006KT 34/21 A3008 RMK A01 T03370206  RH  046%=      5-min Rain = 0
KWA1 201735Z 11008KT 34/20 A3008 RMK A01 T03410201  RH  044%=      5-min Rain = 0
KWA1 201736Z 11007KT 34/20 A3008 RMK A01 T03430202  RH  044%=      5-min Rain = 0
KWA1 201737Z 11008KT 34/20 A3008 RMK A01 T03440201  RH  043%=      5-min Rain = 0
KWA1 201738Z 12008KT 35/20 A3008 RMK A01 T03470200  RH  042%=      5-min Rain = 0
KWA1 201739Z 12005KT 35/20 A3008 RMK A01 T03450195  RH  041%=      5-min Rain = 0
KWA1 201740Z 11005G11KT 34/20 A3008 RMK A01 T03420195  RH  042%=      5-min Rain = 0
KWA1 201741Z 11012KT 34/20 A3008 RMK A01 T03430200  RH  043%=      5-min Rain = 0
KWA1 201742Z 12011KT 35/20 A3008 RMK A01 T03460198  RH  042%=      5-min Rain = 0
KWA1 201743Z 13010KT 34/20 A3008 RMK A01 T03440196  RH  042%=      5-min Rain = 0
KWA1 201744Z 10007KT 34/20 A3008 RMK A01 T03400195  RH  042%=      5-min Rain = 0
KWA1 201745Z 12010KT 34/20 A3008 RMK A01 T03410196  RH  043%=      5-min Rain = 0
KWA1 201746Z 11008KT 34/20 A3008 RMK A01 T03420199  RH  043%=      5-min Rain = 0
KWA1 201747Z 10008KT 34/20 A3008 RMK A01 T03440197  RH  042%=      5-min Rain = 0
KWA1 201748Z 11008KT 34/20 A3008 RMK A01 T03420196  RH  042%=      5-min Rain = 0
KWA1 201749Z 09009KT 34/20 A3008 RMK A01 T03400199  RH  043%=      5-min Rain = 0
KWA1 201750Z 11009KT 34/20 A3008 RMK A01 T03430197  RH  042%=      5-min Rain = 0
KWA1 201751Z 10009KT 34/20 A3008 RMK A01 T03430201  RH  043%=      5-min Rain = 0
KWA1 201752Z 09009KT 35/20 A3008 RMK A01 T03460200  RH  042%=      5-min Rain = 0
KWA1 201753Z 09007KT 35/20 A3008 RMK A01 T03460200  RH  042%=      5-min Rain = 0
KWA1 201754Z 09006KT 35/20 A3008 RMK A01 T03460202  RH  043%=      5-min Rain = 0
KWA1 201755Z 09007KT 35/20 A3008 RMK A01 T03470199  RH  042%=      5-min Rain = 0
KWA1 201756Z 13006KT 34/20 A3008 RMK A01 T03440202  RH  043%=      5-min Rain = 0
KWA1 201757Z 13007G12KT 34/20 A3008 RMK A01 T03440204  RH  044%=      5-min Rain = 0
KWA1 201758Z 16007KT 35/21 A3008 RMK A01 T03450205  RH  044%=      5-min Rain = 0
KWA1 201759Z 17010KT 34/20 A3008 RMK A01 T03440204  RH  044%=      5-min Rain = 0
KWA1 201800Z 18008KT 34/20 A3008 RMK A01 T03430197  RH  042%=      5-min Rain = 0
KWA1 201801Z 16008KT 34/20 A3008 RMK A01 T03400199  RH  044%=      5-min Rain = 0
KWA1 201802Z 15006KT 34/20 A3008 RMK A01 T03400202  RH  045%=      5-min Rain = 0
KWA1 201803Z 12005KT 34/20 A3008 RMK A01 T03440203  RH  044%=      5-min Rain = 0
KWA1 201804Z 17006KT 35/21 A3008 RMK A01 T03490207  RH  044%=      5-min Rain = 0
KWA1 201805Z 17007KT 35/20 A3008 RMK A01 T03500204  RH  043%=      5-min Rain = 0
KWA1 201806Z 17005KT 35/20 A3008 RMK A01 T03480198  RH  042%=      5-min Rain = 0
KWA1 201807Z 18003KT 34/20 A3008 RMK A01 T03430197  RH  042%=      5-min Rain = 0
KWA1 201808Z 15006KT 34/20 A3008 RMK A01 T03430202  RH  044%=      5-min Rain = 0
KWA1 201809Z 14009G14KT 35/20 A3008 RMK A01 T03460204  RH  044%=      5-min Rain = 0
KWA1 201810Z 13010KT 35/20 A3008 RMK A01 T03470198  RH  042%=      5-min Rain = 0
KWA1 201811Z 14008KT 35/20 A3008 RMK A01 T03460200  RH  042%=      5-min Rain = 0
KWA1 201812Z 13006KT 35/20 A3008 RMK A01 T03470200  RH  042%=      5-min Rain = 0
KWA1 201813Z 12006KT 35/20 A3008 RMK A01 T03480201  RH  042%=      5-min Rain = 0
KWA1 201814Z 10007KT 35/20 A3008 RMK A01 T03500197  RH  041%=      5-min Rain = 0
KWA1 201815Z 09006KT 35/20 A3008 RMK A01 T03530197  RH  040%=      5-min Rain = 0
KWA1 201816Z 11003KT 35/20 A3007 RMK A01 T03530196  RH  040%=      5-min Rain = 0
KWA1 201817Z 12005KT 35/20 A3007 RMK A01 T03520197  RH  040%=      5-min Rain = 0
KWA1 201818Z 12011KT 35/20 A3008 RMK A01 T03510195  RH  040%=      5-min Rain = 0
KWA1 201819Z 13010KT 35/19 A3008 RMK A01 T03470193  RH  040%=      5-min Rain = 0
KWA1 201820Z 12010KT 34/20 A3007 RMK A01 T03440197  RH  042%=      5-min Rain = 0
KWA1 201821Z 12010KT 35/20 A3007 RMK A01 T03480198  RH  041%=      5-min Rain = 0
KWA1 201822Z 11012KT 35/20 A3007 RMK A01 T03530196  RH  040%=      5-min Rain = 0
KWA1 201823Z 10009KT 35/19 A3007 RMK A01 T03510193  RH  039%=      5-min Rain = 0
KWA1 201824Z 09009KT 35/20 A3007 RMK A01 T03520195  RH  040%=      5-min Rain = 0
KWA1 201825Z 09008KT 35/19 A3007 RMK A01 T03500190  RH  039%=      5-min Rain = 0
KWA1 201826Z 13006KT 35/19 A3007 RMK A01 T03450193  RH  041%=      5-min Rain = 0
KWA1 201827Z 16009KT 34/20 A3007 RMK A01 T03420196  RH  042%=      5-min Rain = 0
KWA1 201828Z 15008KT 34/19 A3007 RMK A01 T03390194  RH  043%=      5-min Rain = 0
KWA1 201829Z 14006KT 34/19 A3007 RMK A01 T03360194  RH  043%=      5-min Rain = 0
KWA1 201830Z 15006KT 33/19 A3007 RMK A01 T03340192  RH  043%=      5-min Rain = 0
KWA1 201831Z 15006KT 33/19 A3007 RMK A01 T03340194  RH  044%=      5-min Rain = 0
KWA1 201832Z 13003KT 33/19 A3007 RMK A01 T03330191  RH  043%=      5-min Rain = 0
KWA1 201833Z 10002KT 33/19 A3007 RMK A01 T03340192  RH  043%=      5-min Rain = 0
KWA1 201834Z 09003KT 34/19 A3007 RMK A01 T03360190  RH  042%=      5-min Rain = 0
KWA1 201835Z 11004KT 34/19 A3007 RMK A01 T03390193  RH  042%=      5-min Rain = 0
KWA1 201836Z 10004KT 34/19 A3007 RMK A01 T03420192  RH  041%=      5-min Rain = 0
KWA1 201837Z 12005KT 35/19 A3007 RMK A01 T03450193  RH  041%=      5-min Rain = 0
KWA1 201838Z 12009KT 35/19 A3007 RMK A01 T03480192  RH  040%=      5-min Rain = 0
KWA1 201839Z 10008KT 35/19 A3007 RMK A01 T03490186  RH  038%=      5-min Rain = 0
KWA1 201840Z 12008KT 35/19 A3007 RMK A01 T03500189  RH  039%=      5-min Rain = 0
KWA1 201841Z 14008KT 35/19 A3007 RMK A01 T03510188  RH  038%=      5-min Rain = 0
KWA1 201842Z 18005KT 35/19 A3007 RMK A01 T03490188  RH  039%=      5-min Rain = 0
KWA1 201843Z 15003KT 35/19 A3007 RMK A01 T03500190  RH  039%=      5-min Rain = 0
KWA1 201844Z 15005KT 35/19 A3007 RMK A01 T03500190  RH  039%=      5-min Rain = 0
KWA1 201845Z 14008KT 35/20 A3006 RMK A01 T03510197  RH  041%=      5-min Rain = 0
KWA1 201846Z 15007KT 35/19 A3006 RMK A01 T03510190  RH  039%=      5-min Rain = 0
KWA1 201847Z 14006KT 35/19 A3006 RMK A01 T03480190  RH  039%=      5-min Rain = 0
KWA1 201848Z 13010KT 35/19 A3006 RMK A01 T03480193  RH  040%=      5-min Rain = 0
KWA1 201849Z 11009KT 35/20 A3006 RMK A01 T03520196  RH  040%=      5-min Rain = 0
KWA1 201850Z 10010KT 36/19 A3006 RMK A01 T03550191  RH  038%=      5-min Rain = 0
KWA1 201851Z 10007KT 35/19 A3006 RMK A01 T03520188  RH  038%=      5-min Rain = 0
KWA1 201852Z 08005KT 35/19 A3006 RMK A01 T03510192  RH  039%=      5-min Rain = 0
KWA1 201853Z 10007KT 36/20 A3006 RMK A01 T03570196  RH  039%=      5-min Rain = 0
KWA1 201854Z 11007KT 36/19 A3006 RMK A01 T03590191  RH  037%=      5-min Rain = 0
KWA1 201855Z 14009KT 36/20 A3006 RMK A01 T03590196  RH  039%=      5-min Rain = 0
KWA1 201856Z 13009KT 36/20 A3006 RMK A01 T03580197  RH  039%=      5-min Rain = 0
KWA1 201857Z 11006KT 36/19 A3006 RMK A01 T03560190  RH  038%=      5-min Rain = 0
KWA1 201858Z 15006KT 36/20 A3006 RMK A01 T03560196  RH  039%=      5-min Rain = 0
KWA1 201859Z 14007KT 36/19 A3006 RMK A01 T03560194  RH  039%=      5-min Rain = 0
KWA1 201900Z 14005KT 35/19 A3006 RMK A01 T03530191  RH  039%=      5-min Rain = 0
KWA1 201901Z 15004KT 35/18 A3006 RMK A01 T03500184  RH  038%=      5-min Rain = 0
KWA1 201902Z 16003KT 35/19 A3006 RMK A01 T03490193  RH  040%=      5-min Rain = 0
KWA1 201903Z 14008KT 35/19 A3006 RMK A01 T03510193  RH  039%=      5-min Rain = 0
KWA1 201904Z 14008KT 35/19 A3006 RMK A01 T03520193  RH  039%=      5-min Rain = 0
KWA1 201905Z 14009KT 35/19 A3006 RMK A01 T03510190  RH  039%=      5-min Rain = 0
KWA1 201906Z 11009KT 35/19 A3006 RMK A01 T03510190  RH  039%=      5-min Rain = 0
KWA1 201907Z 12009KT 35/19 A3006 RMK A01 T03540190  RH  038%=      5-min Rain = 0
KWA1 201908Z 12006KT 35/19 A3006 RMK A01 T03540186  RH  037%=      5-min Rain = 0
KWA1 201909Z 11003KT 35/19 A3006 RMK A01 T03510190  RH  039%=      5-min Rain = 0
KWA1 201910Z 14004KT 36/19 A3006 RMK A01 T03550187  RH  037%=      5-min Rain = 0
KWA1 201911Z 16009KT 36/20 A3006 RMK A01 T03550196  RH  039%=      5-min Rain = 0
KWA1 201912Z 17010KT 35/20 A3005 RMK A01 T03540198  RH  040%=      5-min Rain = 0
KWA1 201913Z 17008KT 35/20 A3005 RMK A01 T03530197  RH  040%=      5-min Rain = 0
KWA1 201914Z 18008KT 35/20 A3005 RMK A01 T03530199  RH  041%=      5-min Rain = 0
KWA1 201915Z 18009KT 35/19 A3005 RMK A01 T03540193  RH  039%=      5-min Rain = 0
KWA1 201916Z 17006KT 35/19 A3005 RMK A01 T03530187  RH  038%=      5-min Rain = 0
KWA1 201917Z 21006KT 35/19 A3005 RMK A01 T03520190  RH  039%=      5-min Rain = 0
KWA1 201918Z 26005KT 35/19 A3005 RMK A01 T03500186  RH  038%=      5-min Rain = 0
KWA1 201919Z 20002KT 35/19 A3005 RMK A01 T03490187  RH  039%=      5-min Rain = 0
KWA1 201920Z 11004KT 35/20 A3005 RMK A01 T03520195  RH  040%=      5-min Rain = 0
KWA1 201921Z 14003KT 36/19 A3005 RMK A01 T03550188  RH  037%=      5-min Rain = 0
KWA1 201922Z 17003KT 36/19 A3005 RMK A01 T03570189  RH  037%=      5-min Rain = 0
KWA1 201923Z 16006KT 36/19 A3005 RMK A01 T03590190  RH  037%=      5-min Rain = 0
KWA1 201924Z 15007KT 36/19 A3005 RMK A01 T03580193  RH  038%=      5-min Rain = 0
KWA1 201925Z 13006KT 36/19 A3005 RMK A01 T03560190  RH  038%=      5-min Rain = 0
KWA1 201926Z 10009KT 36/19 A3005 RMK A01 T03560191  RH  038%=      5-min Rain = 0
KWA1 201927Z 12011KT 36/19 A3005 RMK A01 T03590187  RH  036%=      5-min Rain = 0
KWA1 201928Z 11010KT 36/19 A3005 RMK A01 T03580185  RH  036%=      5-min Rain = 0
KWA1 201929Z 11012KT 36/19 A3005 RMK A01 T03570186  RH  036%=      5-min Rain = 0
KWA1 201930Z 12008KT 36/18 A3005 RMK A01 T03580184  RH  036%=      5-min Rain = 0
KWA1 201931Z 14005KT 36/19 A3005 RMK A01 T03570187  RH  037%=      5-min Rain = 0
KWA1 201932Z 15005KT 36/19 A3005 RMK A01 T03550192  RH  038%=      5-min Rain = 0
KWA1 201933Z 14004KT 36/19 A3005 RMK A01 T03550188  RH  037%=      5-min Rain = 0
KWA1 201934Z 12004KT 36/19 A3005 RMK A01 T03560188  RH  037%=      5-min Rain = 0
KWA1 201935Z 14005KT 36/19 A3005 RMK A01 T03600189  RH  037%=      5-min Rain = 0
KWA1 201936Z 13004KT 36/19 A3005 RMK A01 T03600187  RH  036%=      5-min Rain = 0
KWA1 201937Z 13006KT 36/19 A3005 RMK A01 T03580190  RH  037%=      5-min Rain = 0
KWA1 201938Z 12009KT 36/19 A3005 RMK A01 T03580189  RH  037%=      5-min Rain = 0
KWA1 201939Z 12010KT 36/18 A3005 RMK A01 T03570184  RH  036%=      5-min Rain = 0
KWA1 201940Z 11006KT 36/19 A3005 RMK A01 T03570187  RH  037%=      5-min Rain = 0
KWA1 201941Z 10003KT 36/18 A3005 RMK A01 T03590184  RH  036%=      5-min Rain = 0
KWA1 201942Z 16008KT 36/19 A3005 RMK A01 T03620193  RH  037%=      5-min Rain = 0
KWA1 201943Z 17006KT 36/19 A3005 RMK A01 T03610193  RH  037%=      5-min Rain = 0
KWA1 201944Z 15003KT 36/19 A3005 RMK A01 T03610192  RH  037%=      5-min Rain = 0
KWA1 201945Z 09001KT 36/18 A3005 RMK A01 T03630184  RH  035%=      5-min Rain = 0
KWA1 201946Z 13002KT 36/18 A3005 RMK A01 T03620183  RH  035%=      5-min Rain = 0
KWA1 201947Z 20001KT 36/19 A3004 RMK A01 T03620185  RH  035%=      5-min Rain = 0
KWA1 201948Z 14001KT 36/19 A3004 RMK A01 T03620185  RH  036%=      5-min Rain = 0
KWA1 201949Z 10004KT 36/18 A3004 RMK A01 T03620184  RH  035%=      5-min Rain = 0
KWA1 201950Z 13008KT 36/18 A3004 RMK A01 T03630182  RH  035%=      5-min Rain = 0
KWA1 201951Z 13009KT 36/19 A3004 RMK A01 T03610187  RH  036%=      5-min Rain = 0
KWA1 201952Z 11008KT 36/18 A3004 RMK A01 T03610184  RH  035%=      5-min Rain = 0
KWA1 201953Z 11010KT 37/19 A3004 RMK A01 T03660188  RH  035%=      5-min Rain = 0
KWA1 201954Z 13008KT 37/18 A3004 RMK A01 T03680184  RH  034%=      5-min Rain = 0
KWA1 201955Z 15007KT 36/20 A3004 RMK A01 T03640195  RH  037%=      5-min Rain = 0
KWA1 201956Z 13007KT 36/19 A3004 RMK A01 T03640190  RH  036%=      5-min Rain = 0
KWA1 201957Z 13007KT 36/19 A3004 RMK A01 T03640187  RH  035%=      5-min Rain = 0
KWA1 201958Z 12007KT 36/18 A3004 RMK A01 T03630181  RH  034%=      5-min Rain = 0
KWA1 201959Z 10008KT 36/17 A3004 RMK A01 T03640171  RH  032%=      5-min Rain = 0
KWA1 202000Z 10009KT 36/18 A3004 RMK A01 T03640175  RH  033%=      5-min Rain = 0
KWA1 202001Z 10007KT 37/18 A3004 RMK A01 T03650176  RH  033%=      5-min Rain = 0
KWA1 202002Z 11004KT 37/18 A3004 RMK A01 T03650178  RH  033%=      5-min Rain = 0
KWA1 202003Z 12005G10KT 37/18 A3004 RMK A01 T03650178  RH  033%=      5-min Rain = 0
KWA1 202004Z 11009KT 36/18 A3004 RMK A01 T03640180  RH  034%=      5-min Rain = 0
KWA1 202005Z 10011KT 36/18 A3004 RMK A01 T03640178  RH  034%=      5-min Rain = 0
KWA1 202006Z 10010KT 37/18 A3004 RMK A01 T03650178  RH  033%=      5-min Rain = 0
KWA1 202007Z 11009KT 36/17 A3004 RMK A01 T03630173  RH  033%=      5-min Rain = 0
KWA1 202008Z 11010KT 36/17 A3004 RMK A01 T03600170  RH  033%=      5-min Rain = 0
KWA1 202009Z 12010KT 36/17 A3004 RMK A01 T03580169  RH  033%=      5-min Rain = 0
KWA1 202010Z 13007KT 35/17 A3004 RMK A01 T03540167  RH  033%=      5-min Rain = 0
KWA1 202011Z 13008KT 35/17 A3003 RMK A01 T03520172  RH  035%=      5-min Rain = 0
KWA1 202012Z 12007KT 35/17 A3003 RMK A01 T03510173  RH  035%=      5-min Rain = 0
KWA1 202013Z 10007KT 35/17 A3003 RMK A01 T03510171  RH  035%=      5-min Rain = 0
KWA1 202014Z 07006KT 35/17 A3003 RMK A01 T03520166  RH  033%=      5-min Rain = 0
KWA1 202015Z 09007KT 35/17 A3003 RMK A01 T03540170  RH  034%=      5-min Rain = 0
KWA1 202016Z 09004KT 36/18 A3003 RMK A01 T03590175  RH  034%=      5-min Rain = 0
KWA1 202017Z 09005KT 36/18 A3003 RMK A01 T03630176  RH  033%=      5-min Rain = 0
KWA1 202018Z 11003KT 37/17 A3003 RMK A01 T03650174  RH  033%=      5-min Rain = 0
KWA1 202019Z 09004KT 37/17 A3003 RMK A01 T03650173  RH  032%=      5-min Rain = 0
KWA1 202020Z 08004KT 36/17 A3003 RMK A01 T03640172  RH  032%=      5-min Rain = 0
KWA1 202021Z 07005KT 36/18 A3003 RMK A01 T03640177  RH  033%=      5-min Rain = 0
KWA1 202022Z 11007KT 37/18 A3003 RMK A01 T03650176  RH  033%=      5-min Rain = 0
KWA1 202023Z 13009KT 36/17 A3003 RMK A01 T03640173  RH  033%=      5-min Rain = 0
KWA1 202024Z 13006KT 36/18 A3003 RMK A01 T03620182  RH  035%=      5-min Rain = 0
KWA1 202025Z 10009KT 37/18 A3003 RMK A01 T03650177  RH  033%=      5-min Rain = 0
KWA1 202026Z 08009KT 37/17 A3003 RMK A01 T03690174  RH  032%=      5-min Rain = 0
KWA1 202027Z 09010KT 37/17 A3003 RMK A01 T03680173  RH  032%=      5-min Rain = 0
KWA1 202028Z 08009KT 37/17 A3003 RMK A01 T03670170  RH  031%=      5-min Rain = 0
KWA1 202029Z 10006KT 37/17 A3003 RMK A01 T03650165  RH  031%=      5-min Rain = 0
KWA1 202030Z 12004KT 36/17 A3003 RMK A01 T03630170  RH  032%=      5-min Rain = 0
KWA1 202031Z 11008KT 37/18 A3003 RMK A01 T03670175  RH  032%=      5-min Rain = 0
KWA1 202032Z 12009KT 37/17 A3003 RMK A01 T03690171  RH  031%=      5-min Rain = 0
KWA1 202033Z 14009KT 36/18 A3002 RMK A01 T03640175  RH  033%=      5-min Rain = 0
KWA1 202034Z 14010KT 36/17 A3002 RMK A01 T03580172  RH  033%=      5-min Rain = 0
KWA1 202035Z 14008KT 36/17 A3002 RMK A01 T03560174  RH  034%=      5-min Rain = 0
KWA1 202036Z 13006KT 36/17 A3002 RMK A01 T03550171  RH  034%=      5-min Rain = 0
KWA1 202037Z 11004KT 36/17 A3002 RMK A01 T03570169  RH  033%=      5-min Rain = 0
KWA1 202038Z 14004KT 36/17 A3002 RMK A01 T03600171  RH  033%=      5-min Rain = 0
KWA1 202039Z 14005KT 36/18 A3002 RMK A01 T03630183  RH  035%=      5-min Rain = 0
KWA1 202040Z 14010KT 37/18 A3002 RMK A01 T03650176  RH  033%=      5-min Rain = 0
KWA1 202041Z 15010KT 36/18 A3002 RMK A01 T03640179  RH  034%=      5-min Rain = 0
KWA1 202042Z 12011KT 36/17 A3002 RMK A01 T03640171  RH  032%=      5-min Rain = 0
KWA1 202043Z 12009KT 36/17 A3002 RMK A01 T03630167  RH  031%=      5-min Rain = 0
KWA1 202044Z 12009KT 37/17 A3002 RMK A01 T03650166  RH  031%=      5-min Rain = 0
KWA1 202045Z 12007KT 37/17 A3002 RMK A01 T03670167  RH  031%=      5-min Rain = 0
KWA1 202046Z 12010KT 37/17 A3002 RMK A01 T03670166  RH  031%=      5-min Rain = 0
KWA1 202047Z 12008G15KT 37/16 A3002 RMK A01 T03650164  RH  030%=      5-min Rain = 0
KWA1 202048Z 10011KT 37/17 A3002 RMK A01 T03670167  RH  031%=      5-min Rain = 0
KWA1 202049Z 10010KT 37/17 A3002 RMK A01 T03730170  RH  030%=      5-min Rain = 0
KWA1 202050Z 10007KT 37/16 A3002 RMK A01 T03720164  RH  029%=      5-min Rain = 0
KWA1 202051Z 09005KT 37/16 A3002 RMK A01 T03680161  RH  029%=      5-min Rain = 0
KWA1 202052Z 06004KT 36/16 A3002 RMK A01 T03640160  RH  030%=      5-min Rain = 0
KWA1 202053Z 10003KT 36/16 A3002 RMK A01 T03630161  RH  030%=      5-min Rain = 0
KWA1 202054Z 13005KT 37/17 A3002 RMK A01 T03660168  RH  031%=      5-min Rain = 0
KWA1 202055Z 13005KT 37/17 A3002 RMK A01 T03680168  RH  031%=      5-min Rain = 0
KWA1 202056Z 16007KT 37/18 A3002 RMK A01 T03670177  RH  033%=      5-min Rain = 0
KWA1 202057Z 15008KT 37/17 A3002 RMK A01 T03680174  RH  032%=      5-min Rain = 0
KWA1 202058Z 14005KT 37/17 A3002 RMK A01 T03660168  RH  031%=      5-min Rain = 0
KWA1 202059Z 13006KT 36/17 A3001 RMK A01 T03640167  RH  031%=      5-min Rain = 0
KWA1 202100Z 11008KT 36/17 A3001 RMK A01 T03640171  RH  032%=      5-min Rain = 0
KWA1 202101Z 12009KT 37/16 A3001 RMK A01 T03650164  RH  030%=      5-min Rain = 0
KWA1 202102Z 12005KT 37/17 A3001 RMK A01 T03650168  RH  031%=      5-min Rain = 0
KWA1 202103Z 09008KT 37/17 A3001 RMK A01 T03660165  RH  031%=      5-min Rain = 0
KWA1 202104Z 12008KT 37/17 A3001 RMK A01 T03680165  RH  030%=      5-min Rain = 0
KWA1 202105Z 13009KT 37/17 A3001 RMK A01 T03680167  RH  031%=      5-min Rain = 0
KWA1 202106Z 12006KT 37/17 A3001 RMK A01 T03660167  RH  031%=      5-min Rain = 0
KWA1 202107Z 10007KT 37/16 A3001 RMK A01 T03650164  RH  030%=      5-min Rain = 0
KWA1 202108Z 10008KT 37/17 A3001 RMK A01 T03680169  RH  031%=      5-min Rain = 0
KWA1 202109Z 09007KT 37/17 A3001 RMK A01 T03700167  RH  030%=      5-min Rain = 0
KWA1 202110Z 09007KT 37/17 A3001 RMK A01 T03690165  RH  030%=      5-min Rain = 0
KWA1 202111Z 08006KT 37/17 A3001 RMK A01 T03680165  RH  030%=      5-min Rain = 0
KWA1 202112Z 06006KT 37/17 A3001 RMK A01 T03690166  RH  030%=      5-min Rain = 0
KWA1 202113Z 06005KT 37/16 A3001 RMK A01 T03690162  RH  030%=      5-min Rain = 0
KWA1 202114Z 09006KT 37/17 A3001 RMK A01 T03680171  RH  031%=      5-min Rain = 0
KWA1 202115Z 10005KT 37/17 A3001 RMK A01 T03720169  RH  030%=      5-min Rain = 0
KWA1 202116Z 08004KT 38/17 A3001 RMK A01 T03750170  RH  030%=      5-min Rain = 0
KWA1 202117Z 08008KT 38/17 A3001 RMK A01 T03750169  RH  030%=      5-min Rain = 0
KWA1 202118Z 10010KT 37/17 A3001 RMK A01 T03710166  RH  030%=      5-min Rain = 0
KWA1 202119Z 10010KT 37/16 A3001 RMK A01 T03690162  RH  030%=      5-min Rain = 0
KWA1 202120Z 11009KT 37/16 A3001 RMK A01 T03670161  RH  029%=      5-min Rain = 0
KWA1 202121Z 10008KT 37/16 A3001 RMK A01 T03660162  RH  030%=      5-min Rain = 0
KWA1 202122Z 11007KT 37/16 A3001 RMK A01 T03680163  RH  030%=      5-min Rain = 0
KWA1 202123Z 12005KT 37/16 A30 RMK A01 T03680161  RH  029%=      5-min Rain = 0
KWA1 202124Z 09004KT 37/17 A30 RMK A01 T03680165  RH  030%=      5-min Rain = 0
KWA1 202125Z 12004KT 37/16 A30 RMK A01 T03700162  RH  029%=      5-min Rain = 0
KWA1 202126Z 14003KT 37/17 A30 RMK A01 T03700169  RH  031%=      5-min Rain = 0
KWA1 202127Z 07006KT 37/17 A30 RMK A01 T03710166  RH  030%=      5-min Rain = 0
KWA1 202128Z 07007KT 37/16 A30 RMK A01 T03720164  RH  029%=      5-min Rain = 0
KWA1 202129Z 07003KT 37/16 A30 RMK A01 T03720164  RH  029%=      5-min Rain = 0
KWA1 202130Z 12003KT 37/17 A30 RMK A01 T03720166  RH  030%=      5-min Rain = 0
KWA1 202131Z 16007KT 37/17 A30 RMK A01 T03720174  RH  031%=      5-min Rain = 0
KWA1 202132Z 15010KT 37/17 A30 RMK A01 T03720172  RH  031%=      5-min Rain = 0
KWA1 202133Z 15006KT 37/17 A30 RMK A01 T03690169  RH  031%=      5-min Rain = 0
KWA1 202134Z 14007KT 37/17 A30 RMK A01 T03680166  RH  031%=      5-min Rain = 0
KWA1 202135Z 13006KT 37/17 A30 RMK A01 T03680166  RH  030%=      5-min Rain = 0
KWA1 202136Z 14007KT 37/17 A30 RMK A01 T03690167  RH  030%=      5-min Rain = 0
KWA1 202137Z 14010KT 37/17 A30 RMK A01 T03720172  RH  031%=      5-min Rain = 0
KWA1 202138Z 13007KT 37/17 A30 RMK A01 T03710166  RH  030%=      5-min Rain = 0
KWA1 202139Z 12006KT 37/16 A30 RMK A01 T03690162  RH  029%=      5-min Rain = 0
KWA1 202140Z 15007KT 37/17 A30 RMK A01 T03690170  RH  031%=      5-min Rain = 0
KWA1 202141Z 15007KT 37/17 A30 RMK A01 T03710172  RH  031%=      5-min Rain = 0
KWA1 202142Z 12007KT 37/17 A30 RMK A01 T03690167  RH  030%=      5-min Rain = 0
KWA1 202143Z 10009KT 37/16 A30 RMK A01 T03680163  RH  030%=      5-min Rain = 0
KWA1 202144Z 13009KT 37/17 A30 RMK A01 T03720168  RH  030%=      5-min Rain = 0
KWA1 202145Z 11008KT 37/16 A30 RMK A01 T03720163  RH  029%=      5-min Rain = 0
KWA1 202146Z 10010KT 37/16 A30 RMK A01 T03720163  RH  029%=      5-min Rain = 0
KWA1 202147Z 10012KT 38/15 A30 RMK A01 T03750153  RH  027%=      5-min Rain = 0
KWA1 202148Z 11011KT 37/16 A30 RMK A01 T03730160  RH  028%=      5-min Rain = 0
KWA1 202149Z 11012KT 37/16 A30 RMK A01 T03730161  RH  029%=      5-min Rain = 0
KWA1 202150Z 10009KT 37/16 A30 RMK A01 T03740160  RH  028%=      5-min Rain = 0
KWA1 202151Z 11009KT 37/16 A30 RMK A01 T03740157  RH  028%=      5-min Rain = 0
KWA1 202152Z 10009KT 37/16 A30 RMK A01 T03730156  RH  028%=      5-min Rain = 0
KWA1 202153Z 09008KT 37/16 A30 RMK A01 T03710158  RH  028%=      5-min Rain = 0
KWA1 202154Z 10006KT 37/16 A30 RMK A01 T03700160  RH  029%=      5-min Rain = 0
KWA1 202155Z 09008KT 37/16 A30 RMK A01 T03730160  RH  029%=      5-min Rain = 0
KWA1 202156Z 11012KT 37/16 A30 RMK A01 T03740163  RH  029%=      5-min Rain = 0
KWA1 202157Z 11008KT 38/16 A30 RMK A01 T03750163  RH  029%=      5-min Rain = 0
KWA1 202158Z 11006KT 37/16 A30 RMK A01 T03740162  RH  029%=      5-min Rain = 0
KWA1 202159Z 11004KT 37/16 A30 RMK A01 T03730159  RH  028%=      5-min Rain = 0
KWA1 202200Z 11003KT 37/16 A30 RMK A01 T03700160  RH  029%=      5-min Rain = 0
KWA1 202201Z 11003KT 37/16 A30 RMK A01 T03690162  RH  029%=      5-min Rain = 0
KWA1 202202Z 08001KT 37/16 A30 RMK A01 T03700157  RH  028%=      5-min Rain = 0
KWA1 202203Z 10003KT 37/16 A30 RMK A01 T03710160  RH  029%=      5-min Rain = 0
KWA1 202204Z 11005KT 37/16 A30 RMK A01 T03710163  RH  029%=      5-min Rain = 0
KWA1 202205Z 13008KT 37/17 A30 RMK A01 T03720166  RH  030%=      5-min Rain = 0
KWA1 202206Z 13009KT 37/17 A30 RMK A01 T03730166  RH  030%=      5-min Rain = 0
KWA1 202207Z 14007KT 37/16 A2999 RMK A01 T03710163  RH  029%=      5-min Rain = 0
KWA1 202208Z 15008KT 37/17 A2999 RMK A01 T03700169  RH  031%=      5-min Rain = 0
KWA1 202209Z 14009KT 37/17 A2999 RMK A01 T03690165  RH  030%=      5-min Rain = 0
KWA1 202210Z 14008KT 37/17 A2999 RMK A01 T03680165  RH  030%=      5-min Rain = 0
KWA1 202211Z 13012KT 37/17 A2999 RMK A01 T03680170  RH  031%=      5-min Rain = 0
KWA1 202212Z 12013KT 37/16 A2999 RMK A01 T03690162  RH  029%=      5-min Rain = 0
KWA1 202213Z 13011KT 37/16 A2999 RMK A01 T03710162  RH  029%=      5-min Rain = 0
KWA1 202214Z 12008KT 37/17 A2999 RMK A01 T03690165  RH  030%=      5-min Rain = 0
KWA1 202215Z 12009KT 37/16 A2999 RMK A01 T03720161  RH  029%=      5-min Rain = 0
KWA1 202216Z 12008KT 37/16 A2999 RMK A01 T03710164  RH  030%=      5-min Rain = 0
KWA1 202217Z 11007KT 37/16 A2999 RMK A01 T03700160  RH  029%=      5-min Rain = 0
KWA1 202218Z 11007KT 37/16 A2999 RMK A01 T03710159  RH  029%=      5-min Rain = 0
KWA1 202219Z 10007KT 37/16 A2999 RMK A01 T03720157  RH  028%=      5-min Rain = 0
KWA1 202220Z 10008KT 37/16 A2999 RMK A01 T03710159  RH  029%=      5-min Rain = 0
KWA1 202221Z 11009KT 37/16 A2999 RMK A01 T03720159  RH  028%=      5-min Rain = 0
KWA1 202222Z 10010KT 37/16 A2999 RMK A01 T03730156  RH  028%=      5-min Rain = 0
KWA1 202223Z 13013KT 37/16 A2999 RMK A01 T03720158  RH  028%=      5-min Rain = 0
KWA1 202224Z 16011KT 37/16 A2999 RMK A01 T03720164  RH  029%=      5-min Rain = 0
KWA1 202225Z 13007KT 37/16 A2999 RMK A01 T03700159  RH  029%=      5-min Rain = 0
KWA1 202226Z 14009KT 37/16 A2999 RMK A01 T03690159  RH  029%=      5-min Rain = 0
KWA1 202227Z 12012KT 37/16 A2999 RMK A01 T03690160  RH  029%=      5-min Rain = 0
KWA1 202228Z 11011KT 37/16 A2999 RMK A01 T03700157  RH  028%=      5-min Rain = 0
KWA1 202229Z 10009KT 37/15 A2999 RMK A01 T03720154  RH  027%=      5-min Rain = 0
KWA1 202230Z 11007KT 37/16 A2999 RMK A01 T03740157  RH  028%=      5-min Rain = 0
KWA1 202231Z 12011KT 37/16 A2999 RMK A01 T03740156  RH  027%=      5-min Rain = 0
KWA1 202232Z 12011KT 37/15 A2999 RMK A01 T03720154  RH  028%=      5-min Rain = 0
KWA1 202233Z 12008KT 37/15 A2999 RMK A01 T03690154  RH  028%=      5-min Rain = 0
KWA1 202234Z 11009KT 37/16 A2999 RMK A01 T03690156  RH  028%=      5-min Rain = 0
KWA1 202235Z 11006KT 37/15 A2999 RMK A01 T03710152  RH  027%=      5-min Rain = 0
KWA1 202236Z 13005KT 37/16 A2999 RMK A01 T03700157  RH  028%=      5-min Rain = 0
KWA1 202237Z 16004KT 37/16 A2999 RMK A01 T03680158  RH  029%=      5-min Rain = 0
KWA1 202238Z 13005KT 37/16 A2999 RMK A01 T03670159  RH  029%=      5-min Rain = 0
KWA1 202239Z 12007KT 37/16 A2999 RMK A01 T03670157  RH  029%=      5-min Rain = 0
KWA1 202240Z 10010KT 37/16 A2999 RMK A01 T03670157  RH  029%=      5-min Rain = 0
KWA1 202241Z 09011KT 37/15 A2999 RMK A01 T03710153  RH  028%=      5-min Rain = 0
KWA1 202242Z 09009KT 37/15 A2999 RMK A01 T03710154  RH  028%=      5-min Rain = 0
KWA1 202243Z 10010KT 37/15 A2999 RMK A01 T03710153  RH  027%=      5-min Rain = 0
KWA1 202244Z 11007KT 37/15 A2999 RMK A01 T03710152  RH  027%=      5-min Rain = 0
KWA1 202245Z 11007KT 37/15 A2999 RMK A01 T03710152  RH  027%=      5-min Rain = 0
KWA1 202246Z 12007KT 37/16 A2999 RMK A01 T03710156  RH  028%=      5-min Rain = 0
KWA1 202247Z 11004KT 37/15 A2999 RMK A01 T03700153  RH  028%=      5-min Rain = 0
KWA1 202248Z 12004KT 37/16 A2999 RMK A01 T03690155  RH  028%=      5-min Rain = 0
KWA1 202249Z 10005KT 37/16 A2999 RMK A01 T03700159  RH  029%=      5-min Rain = 0
KWA1 202250Z 08005KT 37/15 A2999 RMK A01 T03730154  RH  027%=      5-min Rain = 0
KWA1 202251Z 09006KT 37/15 A2999 RMK A01 T03740153  RH  027%=      5-min Rain = 0
KWA1 202252Z 11007KT 37/15 A2999 RMK A01 T03710153  RH  028%=      5-min Rain = 0
KWA1 202253Z 11004KT 37/15 A2999 RMK A01 T03680150  RH  027%=      5-min Rain = 0
KWA1 202254Z 11004KT 37/15 A2999 RMK A01 T03670153  RH  028%=      5-min Rain = 0
KWA1 202255Z 12008G13KT 37/16 A2999 RMK A01 T03690159  RH  029%=      5-min Rain = 0
KWA1 202256Z 11012KT 37/16 A2999 RMK A01 T03700158  RH  029%=      5-min Rain = 0
KWA1 202257Z 11011KT 37/16 A2999 RMK A01 T03710156  RH  028%=      5-min Rain = 0
KWA1 202258Z 11011KT 37/16 A2999 RMK A01 T03710156  RH  028%=      5-min Rain = 0
KWA1 202259Z 11010KT 37/16 A2999 RMK A01 T03700159  RH  029%=      5-min Rain = 0
KWA1 202300Z 11010KT 37/16 A2999 RMK A01 T03690155  RH  028%=      5-min Rain = 0
KWA1 202301Z 11008KT 37/16 A2999 RMK A01 T03690155  RH  028%=      5-min Rain = 0
KWA1 202302Z 10010KT 37/16 A2999 RMK A01 T03690156  RH  028%=      5-min Rain = 0
KWA1 202303Z 11010KT 37/16 A2999 RMK A01 T03690155  RH  028%=      5-min Rain = 0
KWA1 202304Z 11010KT 37/15 A2999 RMK A01 T03690153  RH  028%=      5-min Rain = 0
KWA1 202305Z 12008KT 37/15 A2999 RMK A01 T03690154  RH  028%=      5-min Rain = 0
KWA1 202306Z 12008KT 37/16 A2999 RMK A01 T03680155  RH  028%=      5-min Rain = 0
KWA1 202307Z 11007KT 37/16 A2999 RMK A01 T03670157  RH  029%=      5-min Rain = 0
KWA1 202308Z 10008KT 37/16 A2999 RMK A01 T03670155  RH  029%=      5-min Rain = 0
KWA1 202309Z 09009KT 37/16 A2999 RMK A01 T03680158  RH  029%=      5-min Rain = 0
KWA1 202310Z 09007KT 37/16 A2999 RMK A01 T03680155  RH  028%=      5-min Rain = 0
KWA1 202311Z 09006KT 37/16 A2999 RMK A01 T03660156  RH  029%=      5-min Rain = 0
KWA1 202312Z 09008KT 37/16 A2999 RMK A01 T03660156  RH  029%=      5-min Rain = 0
KWA1 202313Z 11008KT 37/16 A2999 RMK A01 T03670157  RH  029%=      5-min Rain = 0
KWA1 202314Z 11007KT 37/15 A2999 RMK A01 T03670153  RH  028%=      5-min Rain = 0
KWA1 202315Z 10006KT 37/15 A2999 RMK A01 T03670154  RH  028%=      5-min Rain = 0
KWA1 202316Z 10006KT 37/16 A2999 RMK A01 T03660155  RH  029%=      5-min Rain = 0
KWA1 202317Z 10006KT 37/16 A2999 RMK A01 T03660155  RH  029%=      5-min Rain = 0
KWA1 202318Z 11008KT 37/16 A2999 RMK A01 T03670156  RH  029%=      5-min Rain = 0
KWA1 202319Z 09010KT 37/15 A2999 RMK A01 T03680148  RH  027%=      5-min Rain = 0
KWA1 202320Z 09010KT 37/15 A2999 RMK A01 T03690147  RH  027%=      5-min Rain = 0
KWA1 202321Z 11010KT 37/15 A2999 RMK A01 T03700154  RH  028%=      5-min Rain = 0
KWA1 202322Z 11011KT 37/15 A2999 RMK A01 T03700152  RH  027%=      5-min Rain = 0
KWA1 202323Z 10011KT 37/15 A2999 RMK A01 T03690151  RH  027%=      5-min Rain = 0
KWA1 202324Z 10011KT 37/15 A2999 RMK A01 T03690150  RH  027%=      5-min Rain = 0
KWA1 202325Z 10009KT 37/15 A2999 RMK A01 T03690153  RH  028%=      5-min Rain = 0
KWA1 202326Z 10011KT 37/15 A2999 RMK A01 T03700147  RH  027%=      5-min Rain = 0
KWA1 202327Z 10011KT 37/15 A2999 RMK A01 T03690148  RH  027%=      5-min Rain = 0
KWA1 202328Z 11008KT 37/15 A2999 RMK A01 T03690149  RH  027%=      5-min Rain = 0
KWA1 202329Z 11008KT 37/15 A2999 RMK A01 T03690151  RH  028%=      5-min Rain = 0
KWA1 202330Z 12008KT 37/15 A2999 RMK A01 T03680149  RH  027%=      5-min Rain = 0
KWA1 202331Z 11006KT 37/15 A2999 RMK A01 T03670152  RH  028%=      5-min Rain = 0
KWA1 202332Z 09006KT 37/15 A2999 RMK A01 T03670150  RH  028%=      5-min Rain = 0
KWA1 202333Z 10007KT 37/15 A2998 RMK A01 T03680151  RH  028%=      5-min Rain = 0
KWA1 202334Z 10006KT 37/15 A2998 RMK A01 T03680152  RH  028%=      5-min Rain = 0
KWA1 202335Z 11007KT 37/15 A2998 RMK A01 T03690149  RH  027%=      5-min Rain = 0
KWA1 202336Z 11008KT 37/15 A2998 RMK A01 T03680149  RH  027%=      5-min Rain = 0
KWA1 202337Z 13009KT 37/16 A2998 RMK A01 T03680155  RH  028%=      5-min Rain = 0
KWA1 202338Z 12011KT 37/16 A2998 RMK A01 T03670157  RH  029%=      5-min Rain = 0
KWA1 202339Z 12009KT 37/16 A2998 RMK A01 T03650156  RH  029%=      5-min Rain = 0
KWA1 202340Z 12011KT 37/15 A2998 RMK A01 T03650154  RH  029%=      5-min Rain = 0
KWA1 202341Z 12010KT 36/15 A2998 RMK A01 T03640152  RH  028%=      5-min Rain = 0
KWA1 202342Z 12010KT 36/15 A2998 RMK A01 T03630154  RH  029%=      5-min Rain = 0
KWA1 202343Z 11009KT 36/15 A2998 RMK A01 T03630152  RH  029%=      5-min Rain = 0
KWA1 202344Z 12008KT 36/15 A2998 RMK A01 T03630154  RH  029%=      5-min Rain = 0
KWA1 202345Z 14010KT 36/16 A2998 RMK A01 T03630160  RH  030%=      5-min Rain = 0
KWA1 202346Z 13010KT 36/16 A2998 RMK A01 T03630162  RH  030%=      5-min Rain = 0
KWA1 202347Z 12011KT 36/16 A2998 RMK A01 T03630159  RH  030%=      5-min Rain = 0
KWA1 202348Z 13008KT 36/16 A2998 RMK A01 T03630158  RH  030%=      5-min Rain = 0
KWA1 202349Z 14007KT 36/16 A2998 RMK A01 T03630161  RH  030%=      5-min Rain = 0
KWA1 202350Z 14008KT 36/16 A2998 RMK A01 T03610158  RH  030%=      5-min Rain = 0
KWA1 202351Z 13006KT 36/16 A2998 RMK A01 T03600157  RH  030%=      5-min Rain = 0
KWA1 202352Z 14005KT 36/16 A2998 RMK A01 T03590159  RH  030%=      5-min Rain = 0
KWA1 202353Z 15007KT 36/16 A2998 RMK A01 T03590162  RH  031%=      5-min Rain = 0
KWA1 202354Z 15007KT 36/16 A2998 RMK A01 T03590161  RH  031%=      5-min Rain = 0
KWA1 202355Z 16006KT 36/16 A2998 RMK A01 T03580161  RH  031%=      5-min Rain = 0
KWA1 202356Z 15006KT 36/16 A2998 RMK A01 T03570163  RH  032%=      5-min Rain = 0
KWA1 202357Z 13006KT 36/17 A2998 RMK A01 T03560165  RH  032%=      5-min Rain = 0
KWA1 202358Z 14008KT 36/16 A2998 RMK A01 T03560160  RH  031%=      5-min Rain = 0
KWA1 202359Z 13008KT 36/16 A2998 RMK A01 T03570160  RH  031%=      5-min Rain = 0
KWA1 210000Z 10009KT 36/16 A2998 RMK A01 T03570155  RH  030%=      5-min Rain = 0
KWA1 210001Z 11009KT 36/16 A2998 RMK A01 T03600155  RH  030%=      5-min Rain = 0
KWA1 210002Z 11008KT 36/15 A2998 RMK A01 T03610153  RH  029%=      5-min Rain = 0
KWA1 210003Z 11009KT 36/16 A2998 RMK A01 T03610155  RH  029%=      5-min Rain = 0
KWA1 210004Z 13010KT 36/15 A2998 RMK A01 T03610154  RH  029%=      5-min Rain = 0
KWA1 210005Z 13011KT 36/16 A2998 RMK A01 T03600157  RH  030%=      5-min Rain = 0
KWA1 210006Z 14010KT 36/16 A2998 RMK A01 T03580155  RH  030%=      5-min Rain = 0
KWA1 210007Z 14010KT 36/16 A2998 RMK A01 T03570157  RH  030%=      5-min Rain = 0
KWA1 210008Z 14008KT 36/16 A2998 RMK A01 T03560155  RH  030%=      5-min Rain = 0
KWA1 210009Z 13008KT 36/16 A2998 RMK A01 T03560157  RH  031%=      5-min Rain = 0
KWA1 210010Z 12009KT 36/16 A2998 RMK A01 T03570157  RH  031%=      5-min Rain = 0
KWA1 210011Z 11008KT 36/16 A2998 RMK A01 T03580157  RH  030%=      5-min Rain = 0
KWA1 210012Z 12009KT 36/15 A2998 RMK A01 T03590153  RH  029%=      5-min Rain = 0
KWA1 210013Z 11007KT 36/16 A2998 RMK A01 T03590156  RH  030%=      5-min Rain = 0
KWA1 210014Z 12008KT 36/16 A2998 RMK A01 T03590155  RH  030%=      5-min Rain = 0
KWA1 210015Z 11008KT 36/16 A2998 RMK A01 T03590158  RH  030%=      5-min Rain = 0
KWA1 210016Z 11009KT 36/16 A2998 RMK A01 T03590157  RH  030%=      5-min Rain = 0
KWA1 210017Z 12009KT 36/16 A2998 RMK A01 T03590157  RH  030%=      5-min Rain = 0
KWA1 210018Z 13009KT 36/16 A2998 RMK A01 T03580156  RH  030%=      5-min Rain = 0
KWA1 210019Z 12008KT 36/16 A2998 RMK A01 T03560156  RH  030%=      5-min Rain = 0
KWA1 210020Z 12009KT 36/16 A2998 RMK A01 T03560156  RH  031%=      5-min Rain = 0
KWA1 210021Z 12009KT 36/16 A2998 RMK A01 T03560158  RH  031%=      5-min Rain = 0
KWA1 210022Z 12007KT 36/16 A2998 RMK A01 T03560157  RH  031%=      5-min Rain = 0
KWA1 210023Z 11007KT 36/16 A2998 RMK A01 T03560159  RH  031%=      5-min Rain = 0
KWA1 210024Z 13010KT 36/16 A2998 RMK A01 T03550156  RH  031%=      5-min Rain = 0
KWA1 210025Z 12012KT 36/16 A2998 RMK A01 T03550159  RH  031%=      5-min Rain = 0
KWA1 210026Z 11008KT 36/16 A2998 RMK A01 T03550155  RH  030%=      5-min Rain = 0
KWA1 210027Z 11009KT 36/15 A2998 RMK A01 T03550154  RH  030%=      5-min Rain = 0
KWA1 210028Z 12009KT 36/16 A2998 RMK A01 T03550155  RH  030%=      5-min Rain = 0
KWA1 210029Z 12008KT 36/16 A2998 RMK A01 T03550155  RH  030%=      5-min Rain = 0
KWA1 210030Z 12009KT 35/15 A2998 RMK A01 T03540154  RH  030%=      5-min Rain = 0
KWA1 210031Z 13008KT 35/16 A2998 RMK A01 T03540155  RH  031%=      5-min Rain = 0
KWA1 210032Z 13007KT 35/16 A2998 RMK A01 T03530156  RH  031%=      5-min Rain = 0
KWA1 210033Z 13008KT 35/16 A2998 RMK A01 T03530155  RH  031%=      5-min Rain = 0
KWA1 210034Z 12007KT 35/16 A2999 RMK A01 T03520155  RH  031%=      5-min Rain = 0
KWA1 210035Z 12008KT 35/15 A2999 RMK A01 T03520154  RH  031%=      5-min Rain = 0
KWA1 210036Z 12008KT 35/15 A2999 RMK A01 T03520152  RH  030%=      5-min Rain = 0
KWA1 210037Z 13008KT 35/15 A2999 RMK A01 T03510153  RH  031%=      5-min Rain = 0
KWA1 210038Z 13008KT 35/15 A2999 RMK A01 T03510153  RH  031%=      5-min Rain = 0
KWA1 210039Z 13007KT 35/15 A2999 RMK A01 T03500153  RH  031%=      5-min Rain = 0
KWA1 210040Z 12006KT 35/15 A2998 RMK A01 T03500153  RH  031%=      5-min Rain = 0
KWA1 210041Z 13006KT 35/15 A2998 RMK A01 T03500154  RH  031%=      5-min Rain = 0
KWA1 210042Z 13005KT 35/16 A2999 RMK A01 T03490156  RH  032%=      5-min Rain = 0
KWA1 210043Z 15005KT 35/16 A2999 RMK A01 T03480158  RH  032%=      5-min Rain = 0
KWA1 210044Z 14006KT 35/16 A2999 RMK A01 T03460159  RH  033%=      5-min Rain = 0
KWA1 210045Z 14007KT 35/16 A2999 RMK A01 T03450158  RH  033%=      5-min Rain = 0
KWA1 210046Z 14008KT 35/16 A2999 RMK A01 T03450156  RH  032%=      5-min Rain = 0
KWA1 210047Z 14007KT 35/16 A2999 RMK A01 T03450157  RH  033%=      5-min Rain = 0
KWA1 210048Z 14007KT 34/16 A2999 RMK A01 T03440157  RH  033%=      5-min Rain = 0
KWA1 210049Z 15007KT 34/16 A2999 RMK A01 T03430158  RH  033%=      5-min Rain = 0
KWA1 210050Z 14006KT 34/16 A2999 RMK A01 T03420159  RH  033%=      5-min Rain = 0
KWA1 210051Z 15006KT 34/16 A2999 RMK A01 T03410160  RH  034%=      5-min Rain = 0
KWA1 210052Z 14006KT 34/16 A2999 RMK A01 T03390160  RH  034%=      5-min Rain = 0
KWA1 210053Z 14006KT 34/16 A2999 RMK A01 T03380160  RH  034%=      5-min Rain = 0
KWA1 210054Z 14006KT 34/16 A2999 RMK A01 T03380160  RH  035%=      5-min Rain = 0
KWA1 210055Z 14005KT 34/16 A2999 RMK A01 T03370161  RH  035%=      5-min Rain = 0
KWA1 210056Z 14005KT 34/16 A2999 RMK A01 T03370161  RH  035%=      5-min Rain = 0
KWA1 210057Z 14006KT 34/16 A2999 RMK A01 T03360161  RH  035%=      5-min Rain = 0
KWA1 210058Z 14006KT 34/16 A2999 RMK A01 T03350160  RH  035%=      5-min Rain = 0
KWA1 210059Z 14005KT 34/16 A2999 RMK A01 T03350161  RH  035%=      5-min Rain = 0
KWA1 210100Z 14006KT 34/16 A2999 RMK A01 T03350160  RH  035%=      5-min Rain = 0
KWA1 210101Z 14006KT 34/16 A2999 RMK A01 T03350160  RH  035%=      5-min Rain = 0
KWA1 210102Z 14006KT 33/16 A2999 RMK A01 T03340160  RH  035%=      5-min Rain = 0
KWA1 210103Z 14005KT 33/16 A2999 RMK A01 T03340160  RH  035%=      5-min Rain = 0
KWA1 210104Z 14005KT 33/16 A2999 RMK A01 T03340161  RH  036%=      5-min Rain = 0
KWA1 210105Z 14005KT 33/16 A2999 RMK A01 T03330161  RH  036%=      5-min Rain = 0
KWA1 210106Z 14005KT 33/16 A2999 RMK A01 T03320161  RH  036%=      5-min Rain = 0
KWA1 210107Z 14005KT 33/16 A2999 RMK A01 T03310161  RH  036%=      5-min Rain = 0
KWA1 210108Z 14005KT 33/16 A2999 RMK A01 T03300162  RH  036%=      5-min Rain = 0
KWA1 210109Z 14005KT 33/16 A2999 RMK A01 T03300162  RH  037%=      5-min Rain = 0
KWA1 210110Z 14005KT 33/16 A2999 RMK A01 T03290161  RH  037%=      5-min Rain = 0
KWA1 210111Z 14004KT 33/16 A2999 RMK A01 T03280161  RH  037%=      5-min Rain = 0
KWA1 210112Z 14004KT 33/16 A2999 RMK A01 T03280162  RH  037%=      5-min Rain = 0
KWA1 210113Z 14005KT 33/16 A2999 RMK A01 T03270162  RH  037%=      5-min Rain = 0
KWA1 210114Z 14004KT 33/16 A2999 RMK A01 T03260162  RH  038%=      5-min Rain = 0
KWA1 210115Z 13005KT 33/16 A2999 RMK A01 T03250162  RH  038%=      5-min Rain = 0
KWA1 210116Z 13005KT 32/16 A2999 RMK A01 T03240161  RH  038%=      5-min Rain = 0
KWA1 210117Z 13005KT 32/16 A2999 RMK A01 T03230161  RH  038%=      5-min Rain = 0
KWA1 210118Z 13005KT 32/16 A2999 RMK A01 T03230161  RH  038%=      5-min Rain = 0
KWA1 210119Z 13005KT 32/16 A2999 RMK A01 T03230160  RH  038%=      5-min Rain = 0
KWA1 210120Z 13005KT 32/16 A2999 RMK A01 T03220160  RH  038%=      5-min Rain = 0
KWA1 210121Z 13005KT 32/16 A2999 RMK A01 T03220160  RH  038%=      5-min Rain = 0
KWA1 210122Z 13005KT 32/16 A2999 RMK A01 T03210160  RH  038%=      5-min Rain = 0
KWA1 210123Z 14005KT 32/16 A2999 RMK A01 T03210160  RH  038%=      5-min Rain = 0
KWA1 210124Z 14005KT 32/16 A2999 RMK A01 T03210160  RH  038%=      5-min Rain = 0
KWA1 210125Z 14005KT 32/16 A2999 RMK A01 T03200160  RH  038%=      5-min Rain = 0
KWA1 210126Z 13005KT 32/16 A30 RMK A01 T03200160  RH  038%=      5-min Rain = 0
KWA1 210127Z 14005KT 32/16 A30 RMK A01 T03190160  RH  038%=      5-min Rain = 0
KWA1 210128Z 14005KT 32/16 A30 RMK A01 T03190161  RH  039%=      5-min Rain = 0
KWA1 210129Z 14005KT 32/16 A30 RMK A01 T03180160  RH  039%=      5-min Rain = 0
KWA1 210130Z 14005KT 32/16 A30 RMK A01 T03170160  RH  039%=      5-min Rain = 0
KWA1 210131Z 13005KT 32/16 A30 RMK A01 T03170160  RH  039%=      5-min Rain = 0
KWA1 210132Z 13005KT 32/16 A30 RMK A01 T03160160  RH  039%=      5-min Rain = 0
KWA1 210133Z 13005KT 32/16 A30 RMK A01 T03150160  RH  039%=      5-min Rain = 0
KWA1 210134Z 13005KT 31/16 A30 RMK A01 T03140159  RH  039%=      5-min Rain = 0
KWA1 210135Z 13005KT 31/16 A30 RMK A01 T03130159  RH  039%=      5-min Rain = 0
KWA1 210136Z 13005KT 31/16 A30 RMK A01 T03130159  RH  039%=      5-min Rain = 0
KWA1 210137Z 13005KT 31/16 A30 RMK A01 T03120158  RH  040%=      5-min Rain = 0
KWA1 210138Z 13005KT 31/16 A30 RMK A01 T03110158  RH  040%=      5-min Rain = 0
KWA1 210139Z 13005KT 31/16 A30 RMK A01 T03100158  RH  040%=      5-min Rain = 0
KWA1 210140Z 13005KT 31/16 A30 RMK A01 T03100159  RH  040%=      5-min Rain = 0
KWA1 210141Z 13005KT 31/16 A2999 RMK A01 T03080159  RH  040%=      5-min Rain = 0
KWA1 210142Z 14005KT 31/16 A2999 RMK A01 T03080159  RH  041%=      5-min Rain = 0
KWA1 210143Z 13006KT 31/16 A2999 RMK A01 T03070159  RH  041%=      5-min Rain = 0
KWA1 210144Z 14006KT 31/16 A2999 RMK A01 T03060158  RH  041%=      5-min Rain = 0
KWA1 210145Z 14006KT 31/16 A2999 RMK A01 T03060158  RH  041%=      5-min Rain = 0
KWA1 210146Z 14005KT 31/16 A2999 RMK A01 T03070158  RH  041%=      5-min Rain = 0
KWA1 210147Z 14006KT 31/16 A30 RMK A01 T03070158  RH  041%=      5-min Rain = 0
KWA1 210148Z 14006KT 31/16 A30 RMK A01 T03070158  RH  041%=      5-min Rain = 0
KWA1 210149Z 14006KT 31/16 A30 RMK A01 T03070158  RH  041%=      5-min Rain = 0
KWA1 210150Z 14006KT 31/16 A30 RMK A01 T03070159  RH  041%=      5-min Rain = 0
KWA1 210151Z 14006KT 31/16 A30 RMK A01 T03070159  RH  041%=      5-min Rain = 0
KWA1 210152Z 14006KT 31/16 A30 RMK A01 T03070160  RH  041%=      5-min Rain = 0
KWA1 210153Z 14006KT 31/16 A30 RMK A01 T03060161  RH  041%=      5-min Rain = 0
KWA1 210154Z 14007KT 31/16 A30 RMK A01 T03050160  RH  042%=      5-min Rain = 0
KWA1 210155Z 14007KT 30/16 A30 RMK A01 T03030160  RH  042%=      5-min Rain = 0
KWA1 210156Z 14007KT 30/16 A30 RMK A01 T03020160  RH  042%=      5-min Rain = 0
KWA1 210157Z 14007KT 30/16 A30 RMK A01 T03010160  RH  043%=      5-min Rain = 0
KWA1 210158Z 14007KT 30/16 A30 RMK A01 T03010161  RH  043%=      5-min Rain = 0
KWA1 210159Z 14007KT 30/16 A30 RMK A01 T03000160  RH  043%=      5-min Rain = 0
KWA1 210200Z 14007KT 30/16 A30 RMK A01 T03000160  RH  043%=      5-min Rain = 0
KWA1 210201Z 15007KT 30/16 A30 RMK A01 T03000161  RH  043%=      5-min Rain = 0
KWA1 210202Z 15007KT 30/16 A30 RMK A01 T03000161  RH  043%=      5-min Rain = 0
KWA1 210203Z 15007KT 30/16 A30 RMK A01 T02990161  RH  043%=      5-min Rain = 0
KWA1 210204Z 15007KT 30/16 A30 RMK A01 T02980161  RH  043%=      5-min Rain = 0
KWA1 210205Z 15007KT 30/16 A30 RMK A01 T02980160  RH  043%=      5-min Rain = 0
KWA1 210206Z 14007KT 30/16 A30 RMK A01 T02980160  RH  043%=      5-min Rain = 0
KWA1 210207Z 15007KT 30/16 A30 RMK A01 T02980160  RH  043%=      5-min Rain = 0
KWA1 210208Z 15007KT 30/16 A30 RMK A01 T02980160  RH  043%=      5-min Rain = 0
KWA1 210209Z 15007KT 30/16 A30 RMK A01 T02990160  RH  043%=      5-min Rain = 0
KWA1 210210Z 15007KT 30/16 A30 RMK A01 T02980160  RH  043%=      5-min Rain = 0
KWA1 210211Z 15006KT 30/16 A30 RMK A01 T02980160  RH  043%=      5-min Rain = 0
KWA1 210212Z 15007KT 30/16 A30 RMK A01 T02980160  RH  043%=      5-min Rain = 0
KWA1 210213Z 15007KT 30/16 A30 RMK A01 T02980160  RH  043%=      5-min Rain = 0
KWA1 210214Z 15006KT 30/16 A30 RMK A01 T02980160  RH  043%=      5-min Rain = 0
KWA1 210215Z 15007KT 30/16 A30 RMK A01 T02980160  RH  043%=      5-min Rain = 0
KWA1 210216Z 15007KT 30/16 A30 RMK A01 T02980160  RH  043%=      5-min Rain = 0
KWA1 210217Z 14007KT 30/16 A30 RMK A01 T02990160  RH  043%=      5-min Rain = 0
KWA1 210218Z 14006KT 30/16 A30 RMK A01 T02990160  RH  043%=      5-min Rain = 0
KWA1 210219Z 14007KT 30/16 A30 RMK A01 T02990160  RH  043%=      5-min Rain = 0
KWA1 210220Z 14007KT 30/16 A30 RMK A01 T02990159  RH  043%=      5-min Rain = 0
KWA1 210221Z 14007KT 30/16 A30 RMK A01 T02990160  RH  043%=      5-min Rain = 0
KWA1 210222Z 14007KT 30/16 A30 RMK A01 T03000160  RH  043%=      5-min Rain = 0
KWA1 210223Z 14007KT 30/16 A3001 RMK A01 T03000160  RH  043%=      5-min Rain = 0
KWA1 210224Z 14007KT 30/16 A3001 RMK A01 T03010160  RH  043%=      5-min Rain = 0
KWA1 210225Z 14006KT 30/16 A3001 RMK A01 T03010160  RH  042%=      5-min Rain = 0
KWA1 210226Z 15006KT 30/16 A3001 RMK A01 T03010160  RH  042%=      5-min Rain = 0
KWA1 210227Z 14007KT 30/16 A3001 RMK A01 T03010160  RH  043%=      5-min Rain = 0
KWA1 210228Z 14006KT 30/16 A3001 RMK A01 T03000159  RH  043%=      5-min Rain = 0
KWA1 210229Z 14007KT 30/16 A3001 RMK A01 T03000160  RH  043%=      5-min Rain = 0
KWA1 210230Z 14006KT 30/16 A3001 RMK A01 T02990160  RH  043%=      5-min Rain = 0
KWA1 210231Z 14007KT 30/16 A3001 RMK A01 T02980160  RH  043%=      5-min Rain = 0
KWA1 210232Z 15007KT 30/16 A3001 RMK A01 T02970160  RH  043%=      5-min Rain = 0
KWA1 210233Z 14007KT 30/16 A3001 RMK A01 T02970160  RH  044%=      5-min Rain = 0
KWA1 210234Z 14007KT 30/16 A3001 RMK A01 T02970160  RH  044%=      5-min Rain = 0
KWA1 210235Z 14007KT 30/16 A3001 RMK A01 T02960160  RH  044%=      5-min Rain = 0
KWA1 210236Z 14006KT 30/16 A3001 RMK A01 T02960160  RH  044%=      5-min Rain = 0
KWA1 210237Z 14006KT 30/16 A3001 RMK A01 T02970161  RH  044%=      5-min Rain = 0
KWA1 210238Z 14006KT 30/16 A3001 RMK A01 T02960161  RH  044%=      5-min Rain = 0
KWA1 210239Z 15006KT 30/16 A3001 RMK A01 T02960161  RH  044%=      5-min Rain = 0
KWA1 210240Z 15006KT 30/16 A3001 RMK A01 T02960161  RH  044%=      5-min Rain = 0
KWA1 210241Z 14006KT 30/16 A3001 RMK A01 T02950161  RH  044%=      5-min Rain = 0
KWA1 210242Z 14006KT 29/16 A3001 RMK A01 T02940161  RH  044%=      5-min Rain = 0
KWA1 210243Z 15006KT 29/16 A3001 RMK A01 T02940161  RH  045%=      5-min Rain = 0
KWA1 210244Z 15006KT 29/16 A3001 RMK A01 T02930161  RH  045%=      5-min Rain = 0
KWA1 210245Z 15006KT 29/16 A3001 RMK A01 T02930161  RH  045%=      5-min Rain = 0
KWA1 210246Z 15006KT 29/16 A3001 RMK A01 T02920161  RH  045%=      5-min Rain = 0
KWA1 210247Z 15006KT 29/16 A3001 RMK A01 T02910161  RH  045%=      5-min Rain = 0
KWA1 210248Z 15006KT 29/16 A3001 RMK A01 T02910161  RH  046%=      5-min Rain = 0
KWA1 210249Z 15006KT 29/16 A3001 RMK A01 T02900162  RH  046%=      5-min Rain = 0
KWA1 210250Z 15006KT 29/16 A3001 RMK A01 T02900162  RH  046%=      5-min Rain = 0
KWA1 210251Z 15006KT 29/16 A3002 RMK A01 T02890162  RH  046%=      5-min Rain = 0
KWA1 210252Z 15006KT 29/16 A3002 RMK A01 T02890162  RH  046%=      5-min Rain = 0
KWA1 210253Z 15006KT 29/16 A3002 RMK A01 T02880162  RH  047%=      5-min Rain = 0
KWA1 210254Z 15006KT 29/16 A3002 RMK A01 T02870162  RH  047%=      5-min Rain = 0
KWA1 210255Z 15006KT 29/16 A3002 RMK A01 T02870163  RH  047%=      5-min Rain = 0
KWA1 210256Z 15006KT 29/16 A3002 RMK A01 T02860163  RH  047%=      5-min Rain = 0
KWA1 210257Z 15006KT 29/16 A3002 RMK A01 T02850163  RH  048%=      5-min Rain = 0
KWA1 210258Z 15006KT 28/16 A3002 RMK A01 T02840163  RH  048%=      5-min Rain = 0
KWA1 210259Z 16006KT 28/16 A3002 RMK A01 T02830163  RH  048%=      5-min Rain = 0
KWA1 210300Z 15006KT 28/16 A3002 RMK A01 T02830163  RH  048%=      5-min Rain = 0
KWA1 210301Z 16006KT 28/16 A3002 RMK A01 T02820163  RH  049%=      5-min Rain = 0
KWA1 210302Z 16006KT 28/16 A3002 RMK A01 T02810164  RH  049%=      5-min Rain = 0
KWA1 210303Z 16006KT 28/16 A3002 RMK A01 T02810164  RH  049%=      5-min Rain = 0
KWA1 210304Z 16006KT 28/16 A3002 RMK A01 T02800163  RH  049%=      5-min Rain = 0
KWA1 210305Z 16006KT 28/16 A3002 RMK A01 T02790164  RH  049%=      5-min Rain = 0
KWA1 210306Z 16006KT 28/16 A3002 RMK A01 T02790164  RH  050%=      5-min Rain = 0
KWA1 210307Z 16006KT 28/16 A3002 RMK A01 T02780164  RH  050%=      5-min Rain = 0
KWA1 210308Z 16006KT 28/16 A3002 RMK A01 T02780164  RH  050%=      5-min Rain = 0
KWA1 210309Z 15006KT 28/16 A3002 RMK A01 T02770164  RH  050%=      5-min Rain = 0
KWA1 210310Z 15006KT 28/16 A3002 RMK A01 T02770164  RH  050%=      5-min Rain = 0
KWA1 210311Z 15007KT 28/16 A3002 RMK A01 T02770164  RH  050%=      5-min Rain = 0
KWA1 210312Z 16006KT 28/16 A3002 RMK A01 T02770164  RH  050%=      5-min Rain = 0
KWA1 210313Z 16007KT 28/16 A3002 RMK A01 T02770164  RH  050%=      5-min Rain = 0
KWA1 210314Z 16007KT 28/16 A3002 RMK A01 T02760164  RH  050%=      5-min Rain = 0
KWA1 210315Z 15007KT 28/16 A3002 RMK A01 T02760164  RH  050%=      5-min Rain = 0
KWA1 210316Z 15006KT 28/16 A3002 RMK A01 T02760164  RH  051%=      5-min Rain = 0
KWA1 210317Z 16007KT 28/17 A3002 RMK A01 T02760165  RH  051%=      5-min Rain = 0
KWA1 210318Z 16007KT 28/17 A3002 RMK A01 T02750165  RH  051%=      5-min Rain = 0
KWA1 210319Z 16007KT 28/17 A3002 RMK A01 T02750165  RH  051%=      5-min Rain = 0
KWA1 210320Z 15007KT 28/17 A3002 RMK A01 T02750165  RH  051%=      5-min Rain = 0
KWA1 210321Z 16007KT 28/17 A3002 RMK A01 T02750165  RH  051%=      5-min Rain = 0
KWA1 210322Z 16007KT 28/17 A3002 RMK A01 T02750165  RH  051%=      5-min Rain = 0
KWA1 210323Z 15007KT 28/17 A3002 RMK A01 T02750165  RH  051%=      5-min Rain = 0
KWA1 210324Z 15007KT 28/17 A3003 RMK A01 T02750165  RH  051%=      5-min Rain = 0
KWA1 210325Z 15007KT 28/17 A3003 RMK A01 T02750165  RH  051%=      5-min Rain = 0
KWA1 210326Z 15007KT 28/17 A3003 RMK A01 T02750165  RH  051%=      5-min Rain = 0
KWA1 210327Z 15007KT 28/17 A3003 RMK A01 T02750165  RH  051%=      5-min Rain = 0
KWA1 210328Z 15007KT 28/17 A3003 RMK A01 T02750165  RH  051%=      5-min Rain = 0
KWA1 210329Z 15007KT 28/17 A3003 RMK A01 T02750165  RH  051%=      5-min Rain = 0
KWA1 210330Z 15007KT 28/17 A3003 RMK A01 T02750165  RH  051%=      5-min Rain = 0
KWA1 210331Z 15007KT 28/17 A3003 RMK A01 T02760165  RH  051%=      5-min Rain = 0
KWA1 210332Z 15007KT 28/17 A3003 RMK A01 T02760165  RH  051%=      5-min Rain = 0
KWA1 210333Z 15008KT 28/17 A3003 RMK A01 T02760165  RH  051%=      5-min Rain = 0
KWA1 210334Z 15008KT 28/17 A3003 RMK A01 T02780165  RH  050%=      5-min Rain = 0
KWA1 210335Z 15007KT 28/17 A3003 RMK A01 T02780165  RH  050%=      5-min Rain = 0
KWA1 210336Z 15008KT 28/17 A3003 RMK A01 T02790165  RH  050%=      5-min Rain = 0
KWA1 210337Z 15007KT 28/17 A3003 RMK A01 T02790165  RH  050%=      5-min Rain = 0
KWA1 210338Z 15008KT 28/17 A3003 RMK A01 T02800165  RH  049%=      5-min Rain = 0
KWA1 210339Z 15007KT 28/17 A3003 RMK A01 T02810165  RH  049%=      5-min Rain = 0
KWA1 210340Z 15008KT 28/17 A3003 RMK A01 T02810165  RH  049%=      5-min Rain = 0
KWA1 210341Z 15007KT 28/17 A3003 RMK A01 T02820165  RH  049%=      5-min Rain = 0
KWA1 210342Z 15008KT 28/17 A3003 RMK A01 T02820165  RH  049%=      5-min Rain = 0
KWA1 210343Z 15007KT 28/17 A3003 RMK A01 T02820165  RH  049%=      5-min Rain = 0
KWA1 210344Z 15007KT 28/17 A3003 RMK A01 T02830165  RH  049%=      5-min Rain = 0
KWA1 210345Z 15007KT 28/17 A3003 RMK A01 T02840166  RH  049%=      5-min Rain = 0
KWA1 210346Z 15008KT 28/17 A3003 RMK A01 T02840165  RH  049%=      5-min Rain = 0
KWA1 210347Z 15008KT 28/17 A3003 RMK A01 T02840165  RH  048%=      5-min Rain = 0
KWA1 210348Z 15007KT 29/17 A3003 RMK A01 T02850165  RH  048%=      5-min Rain = 0
KWA1 210349Z 15007KT 29/17 A3003 RMK A01 T02850165  RH  048%=      5-min Rain = 0
KWA1 210350Z 15008KT 29/17 A3003 RMK A01 T02850166  RH  048%=      5-min Rain = 0
KWA1 210351Z 15008KT 29/17 A3003 RMK A01 T02850166  RH  048%=      5-min Rain = 0
KWA1 210352Z 14007KT 29/17 A3003 RMK A01 T02860166  RH  048%=      5-min Rain = 0
KWA1 210353Z 14008KT 29/17 A3003 RMK A01 T02860166  RH  048%=      5-min Rain = 0
KWA1 210354Z 14007KT 29/17 A3003 RMK A01 T02860166  RH  048%=      5-min Rain = 0
KWA1 210355Z 15007KT 29/17 A3003 RMK A01 T02860166  RH  048%=      5-min Rain = 0
KWA1 210356Z 15007KT 29/17 A3003 RMK A01 T02860165  RH  048%=      5-min Rain = 0
KWA1 210357Z 15007KT 29/17 A3003 RMK A01 T02870166  RH  048%=      5-min Rain = 0
KWA1 210358Z 15007KT 29/17 A3003 RMK A01 T02870166  RH  048%=      5-min Rain = 0
KWA1 210359Z 15007KT 29/17 A3003 RMK A01 T02850166  RH  048%=      5-min Rain = 0
KWA1 210400Z 15007KT 28/17 A3003 RMK A01 T02840166  RH  049%=      5-min Rain = 0
KWA1 210401Z 16007KT 28/17 A3003 RMK A01 T02840166  RH  049%=      5-min Rain = 0
KWA1 210402Z 16007KT 28/17 A3003 RMK A01 T02830167  RH  049%=      5-min Rain = 0
KWA1 210403Z 16007KT 28/17 A3003 RMK A01 T02820167  RH  050%=      5-min Rain = 0
KWA1 210404Z 16007KT 28/17 A3003 RMK A01 T02820167  RH  050%=      5-min Rain = 0
KWA1 210405Z 16007KT 28/17 A3003 RMK A01 T02810167  RH  050%=      5-min Rain = 0
KWA1 210406Z 16008KT 28/17 A3003 RMK A01 T02800167  RH  050%=      5-min Rain = 0
KWA1 210407Z 16007KT 28/17 A3003 RMK A01 T02790167  RH  050%=      5-min Rain = 0
KWA1 210408Z 16008KT 28/17 A3003 RMK A01 T02790167  RH  051%=      5-min Rain = 0
KWA1 210409Z 16007KT 28/17 A3003 RMK A01 T02780167  RH  051%=      5-min Rain = 0
KWA1 210410Z 16007KT 28/17 A3003 RMK A01 T02780167  RH  051%=      5-min Rain = 0
KWA1 210411Z 16008KT 28/17 A3003 RMK A01 T02780167  RH  051%=      5-min Rain = 0
KWA1 210412Z 16007KT 28/17 A3003 RMK A01 T02780167  RH  051%=      5-min Rain = 0
KWA1 210413Z 16007KT 28/17 A3003 RMK A01 T02780167  RH  051%=      5-min Rain = 0
KWA1 210414Z 16007KT 28/17 A3003 RMK A01 T02780168  RH  051%=      5-min Rain = 0
KWA1 210415Z 16007KT 28/17 A3003 RMK A01 T02770168  RH  051%=      5-min Rain = 0
KWA1 210416Z 16007KT 28/17 A3003 RMK A01 T02770168  RH  051%=      5-min Rain = 0
KWA1 210417Z 16007KT 28/17 A3003 RMK A01 T02760168  RH  052%=      5-min Rain = 0
KWA1 210418Z 16007KT 28/17 A3003 RMK A01 T02760168  RH  052%=      5-min Rain = 0
KWA1 210419Z 16007KT 28/17 A3003 RMK A01 T02760168  RH  052%=      5-min Rain = 0
KWA1 210420Z 16007KT 28/17 A3003 RMK A01 T02760168  RH  052%=      5-min Rain = 0
KWA1 210421Z 16008KT 28/17 A3003 RMK A01 T02760168  RH  052%=      5-min Rain = 0
KWA1 210422Z 16007KT 28/17 A3003 RMK A01 T02760168  RH  052%=      5-min Rain = 0
KWA1 210423Z 16007KT 28/17 A3003 RMK A01 T02750168  RH  052%=      5-min Rain = 0
KWA1 210424Z 16007KT 28/17 A3003 RMK A01 T02750168  RH  052%=      5-min Rain = 0
KWA1 210425Z 16007KT 28/17 A3003 RMK A01 T02750168  RH  052%=      5-min Rain = 0
KWA1 210426Z 16007KT 27/17 A3003 RMK A01 T02740168  RH  052%=      5-min Rain = 0
KWA1 210427Z 16007KT 27/17 A3003 RMK A01 T02740169  RH  052%=      5-min Rain = 0
KWA1 210428Z 16007KT 27/17 A3003 RMK A01 T02740168  RH  053%=      5-min Rain = 0
KWA1 210429Z 15007KT 27/17 A3003 RMK A01 T02730168  RH  053%=      5-min Rain = 0
KWA1 210430Z 15007KT 27/17 A3003 RMK A01 T02730168  RH  053%=      5-min Rain = 0
KWA1 210431Z 15007KT 27/17 A3003 RMK A01 T02730169  RH  053%=      5-min Rain = 0
KWA1 210432Z 15007KT 27/17 A3003 RMK A01 T02730169  RH  053%=      5-min Rain = 0
KWA1 210433Z 15007KT 27/17 A3003 RMK A01 T02720168  RH  053%=      5-min Rain = 0
KWA1 210434Z 15007KT 27/17 A3003 RMK A01 T02720168  RH  053%=      5-min Rain = 0
KWA1 210435Z 15007KT 27/17 A3003 RMK A01 T02730168  RH  053%=      5-min Rain = 0
KWA1 210436Z 16007KT 27/17 A3003 RMK A01 T02730168  RH  053%=      5-min Rain = 0
KWA1 210437Z 15007KT 27/17 A3003 RMK A01 T02730168  RH  053%=      5-min Rain = 0
KWA1 210438Z 15007KT 27/17 A3003 RMK A01 T02730169  RH  053%=      5-min Rain = 0
KWA1 210439Z 16006KT 27/17 A3003 RMK A01 T02730169  RH  053%=      5-min Rain = 0
KWA1 210440Z 15006KT 27/17 A3003 RMK A01 T02730169  RH  053%=      5-min Rain = 0
KWA1 210441Z 16006KT 27/17 A3003 RMK A01 T02730169  RH  053%=      5-min Rain = 0
KWA1 210442Z 16006KT 27/17 A3003 RMK A01 T02730169  RH  053%=      5-min Rain = 0
KWA1 210443Z 16006KT 27/17 A3003 RMK A01 T02730169  RH  053%=      5-min Rain = 0
KWA1 210444Z 16006KT 27/17 A3003 RMK A01 T02730169  RH  053%=      5-min Rain = 0
KWA1 210445Z 16007KT 27/17 A3003 RMK A01 T02730169  RH  053%=      5-min Rain = 0
KWA1 210446Z 16006KT 27/17 A3003 RMK A01 T02730169  RH  053%=      5-min Rain = 0
KWA1 210447Z 16006KT 27/17 A3003 RMK A01 T02730169  RH  053%=      5-min Rain = 0
KWA1 210448Z 16006KT 27/17 A3003 RMK A01 T02730170  RH  053%=      5-min Rain = 0
KWA1 210449Z 16006KT 27/17 A3003 RMK A01 T02720169  RH  053%=      5-min Rain = 0
KWA1 210450Z 16005KT 27/17 A3003 RMK A01 T02720169  RH  053%=      5-min Rain = 0
KWA1 210451Z 16005KT 27/17 A3003 RMK A01 T02720169  RH  053%=      5-min Rain = 0
KWA1 210452Z 16005KT 27/17 A3003 RMK A01 T02720169  RH  053%=      5-min Rain = 0
KWA1 210453Z 16005KT 27/17 A3003 RMK A01 T02720169  RH  053%=      5-min Rain = 0
KWA1 210454Z 16006KT 27/17 A3003 RMK A01 T02720170  RH  053%=      5-min Rain = 0
KWA1 210455Z 17006KT 27/17 A3003 RMK A01 T02720169  RH  053%=      5-min Rain = 0
KWA1 210456Z 17006KT 27/17 A3003 RMK A01 T02730169  RH  053%=      5-min Rain = 0
KWA1 210457Z 17006KT 27/17 A3003 RMK A01 T02730169  RH  053%=      5-min Rain = 0
KWA1 210458Z 17007KT 27/17 A3003 RMK A01 T02730169  RH  053%=      5-min Rain = 0
KWA1 210459Z 17006KT 27/17 A3003 RMK A01 T02740169  RH  053%=      5-min Rain = 0

Page generated in 0.1215 seconds.